<?xml version='1.0' encoding='UTF-8'?><gpx version="1.1" creator="JPX - https://github.com/jenetics/jpx" xmlns="http://www.topografix.com/GPX/1/1"><trk><trkseg><trkpt lat="44.5085228" lon="11.3764734"><ele>48.0</ele><time>2026-04-11T14:00:58.034Z</time></trkpt><trkpt lat="44.5085637" lon="11.3764034"><ele>48.0</ele><time>2026-04-11T14:01:03.037Z</time></trkpt><trkpt lat="44.5086864" lon="11.3763212"><ele>48.0</ele><time>2026-04-11T14:01:10.035Z</time></trkpt><trkpt lat="44.5087324" lon="11.3762479"><ele>48.0</ele><time>2026-04-11T14:01:12.035Z</time></trkpt><trkpt lat="44.5087987" lon="11.3761733"><ele>48.0</ele><time>2026-04-11T14:01:15.035Z</time></trkpt><trkpt lat="44.5087636" lon="11.3762581"><ele>48.0</ele><time>2026-04-11T14:01:17.035Z</time></trkpt><trkpt lat="44.508708" lon="11.3763393"><ele>48.0</ele><time>2026-04-11T14:01:18.036Z</time></trkpt><trkpt lat="44.5086506" lon="11.3764097"><ele>48.0</ele><time>2026-04-11T14:01:21.035Z</time></trkpt><trkpt lat="44.508613" lon="11.3764864"><ele>48.0</ele><time>2026-04-11T14:01:30.038Z</time></trkpt><trkpt lat="44.5085593" lon="11.3765567"><ele>48.0</ele><time>2026-04-11T14:01:39.036Z</time></trkpt><trkpt lat="44.5085248" lon="11.3764475"><ele>48.0</ele><time>2026-04-11T14:01:53.036Z</time></trkpt><trkpt lat="44.5085121" lon="11.37634"><ele>48.0</ele><time>2026-04-11T14:02:01.035Z</time></trkpt><trkpt lat="44.5085912" lon="11.376391"><ele>47.666666666666664</ele><time>2026-04-11T14:02:29.037Z</time></trkpt><trkpt lat="44.5086056" lon="11.3762858"><ele>47.333333333333336</ele><time>2026-04-11T14:02:35.036Z</time></trkpt><trkpt lat="44.5086328" lon="11.3761744"><ele>47.0</ele><time>2026-04-11T14:02:40.035Z</time></trkpt><trkpt lat="44.5086614" lon="11.376079"><ele>46.66666666666667</ele><time>2026-04-11T14:02:44.037Z</time></trkpt><trkpt lat="44.5086553" lon="11.3759783"><ele>46.333333333333336</ele><time>2026-04-11T14:02:50.036Z</time></trkpt><trkpt lat="44.5086543" lon="11.3758826"><ele>46.0</ele><time>2026-04-11T14:02:56.036Z</time></trkpt><trkpt lat="44.5086813" lon="11.3757803"><ele>46.0</ele><time>2026-04-11T14:03:05.036Z</time></trkpt><trkpt lat="44.5086859" lon="11.3756816"><ele>46.0</ele><time>2026-04-11T14:03:09.036Z</time></trkpt><trkpt lat="44.5086956" lon="11.3755799"><ele>46.0</ele><time>2026-04-11T14:03:13.035Z</time></trkpt><trkpt lat="44.5086766" lon="11.3754867"><ele>46.0</ele><time>2026-04-11T14:03:17.037Z</time></trkpt><trkpt lat="44.5086668" lon="11.37538"><ele>46.0</ele><time>2026-04-11T14:03:22.035Z</time></trkpt><trkpt lat="44.5086513" lon="11.3752802"><ele>46.0</ele><time>2026-04-11T14:03:28.036Z</time></trkpt><trkpt lat="44.5086059" lon="11.3752026"><ele>46.0</ele><time>2026-04-11T14:03:34.036Z</time></trkpt><trkpt lat="44.5085369" lon="11.3751877"><ele>45.57142857142858</ele><time>2026-04-11T14:03:39.036Z</time></trkpt><trkpt lat="44.5084735" lon="11.3751825"><ele>45.14285714285714</ele><time>2026-04-11T14:03:43.037Z</time></trkpt><trkpt lat="44.5084095" lon="11.3751879"><ele>44.714285714285715</ele><time>2026-04-11T14:03:47.036Z</time></trkpt><trkpt lat="44.5083523" lon="11.3751433"><ele>44.28571428571429</ele><time>2026-04-11T14:03:52.036Z</time></trkpt><trkpt lat="44.5082923" lon="11.3751093"><ele>43.85714285714286</ele><time>2026-04-11T14:03:57.036Z</time></trkpt><trkpt lat="44.5082306" lon="11.3750527"><ele>43.42857142857143</ele><time>2026-04-11T14:04:03.036Z</time></trkpt><trkpt lat="44.5081715" lon="11.3749989"><ele>43.0</ele><time>2026-04-11T14:04:09.036Z</time></trkpt><trkpt lat="44.5081186" lon="11.3750577"><ele>43.0</ele><time>2026-04-11T14:05:06.037Z</time></trkpt><trkpt lat="44.5080732" lon="11.3749672"><ele>43.0</ele><time>2026-04-11T14:07:12.037Z</time></trkpt><trkpt lat="44.5079826" lon="11.3750144"><ele>43.0</ele><time>2026-04-11T14:07:16.034Z</time></trkpt><trkpt lat="44.5079221" lon="11.375062"><ele>43.0</ele><time>2026-04-11T14:07:18.035Z</time></trkpt><trkpt lat="44.5078455" lon="11.375115"><ele>43.0</ele><time>2026-04-11T14:07:21.037Z</time></trkpt><trkpt lat="44.5077759" lon="11.3751788"><ele>43.0</ele><time>2026-04-11T14:07:24.034Z</time></trkpt><trkpt lat="44.5077055" lon="11.3752353"><ele>43.00000000000001</ele><time>2026-04-11T14:07:27.035Z</time></trkpt><trkpt lat="44.5076399" lon="11.3752856"><ele>43.0</ele><time>2026-04-11T14:07:30.033Z</time></trkpt><trkpt lat="44.5075806" lon="11.3753445"><ele>43.0</ele><time>2026-04-11T14:07:33.035Z</time></trkpt><trkpt lat="44.5075281" lon="11.3754044"><ele>43.0</ele><time>2026-04-11T14:07:36.035Z</time></trkpt><trkpt lat="44.5074732" lon="11.3754591"><ele>43.0</ele><time>2026-04-11T14:07:39.036Z</time></trkpt><trkpt lat="44.5074174" lon="11.3755163"><ele>43.00000000000001</ele><time>2026-04-11T14:07:42.037Z</time></trkpt><trkpt lat="44.5073528" lon="11.3755661"><ele>43.0</ele><time>2026-04-11T14:07:45.037Z</time></trkpt><trkpt lat="44.507295" lon="11.3756228"><ele>43.42857142857143</ele><time>2026-04-11T14:07:48.037Z</time></trkpt><trkpt lat="44.507248" lon="11.3756892"><ele>43.85714285714286</ele><time>2026-04-11T14:07:51.037Z</time></trkpt><trkpt lat="44.5072034" lon="11.3757657"><ele>44.28571428571429</ele><time>2026-04-11T14:07:54.037Z</time></trkpt><trkpt lat="44.5072043" lon="11.3758547"><ele>44.714285714285715</ele><time>2026-04-11T14:07:57.036Z</time></trkpt><trkpt lat="44.5072229" lon="11.375943"><ele>45.14285714285714</ele><time>2026-04-11T14:08:01.035Z</time></trkpt><trkpt lat="44.5072065" lon="11.3760323"><ele>45.57142857142858</ele><time>2026-04-11T14:08:06.036Z</time></trkpt><trkpt lat="44.5072565" lon="11.3761226"><ele>46.0</ele><time>2026-04-11T14:08:11.036Z</time></trkpt><trkpt lat="44.5073055" lon="11.3761926"><ele>46.0</ele><time>2026-04-11T14:08:14.036Z</time></trkpt><trkpt lat="44.5073622" lon="11.3762606"><ele>46.0</ele><time>2026-04-11T14:08:17.034Z</time></trkpt><trkpt lat="44.507417" lon="11.3763213"><ele>46.0</ele><time>2026-04-11T14:08:20.037Z</time></trkpt><trkpt lat="44.5074558" lon="11.3763959"><ele>46.0</ele><time>2026-04-11T14:08:23.035Z</time></trkpt><trkpt lat="44.5075236" lon="11.3764784"><ele>46.0</ele><time>2026-04-11T14:08:26.034Z</time></trkpt><trkpt lat="44.5075891" lon="11.3765463"><ele>46.0</ele><time>2026-04-11T14:08:29.035Z</time></trkpt><trkpt lat="44.5076667" lon="11.3765919"><ele>46.0</ele><time>2026-04-11T14:08:32.034Z</time></trkpt><trkpt lat="44.5077294" lon="11.3766109"><ele>46.0</ele><time>2026-04-11T14:08:35.035Z</time></trkpt><trkpt lat="44.5077815" lon="11.3766865"><ele>46.0</ele><time>2026-04-11T14:08:38.036Z</time></trkpt><trkpt lat="44.5078301" lon="11.3767687"><ele>46.0</ele><time>2026-04-11T14:08:41.035Z</time></trkpt><trkpt lat="44.5078908" lon="11.3768452"><ele>46.0</ele><time>2026-04-11T14:08:45.035Z</time></trkpt><trkpt lat="44.5079438" lon="11.3769003"><ele>46.0</ele><time>2026-04-11T14:08:48.035Z</time></trkpt><trkpt lat="44.5079902" lon="11.3769675"><ele>46.0</ele><time>2026-04-11T14:08:51.034Z</time></trkpt><trkpt lat="44.5080176" lon="11.3770492"><ele>46.285714285714285</ele><time>2026-04-11T14:08:55.035Z</time></trkpt><trkpt lat="44.5080429" lon="11.3771302"><ele>46.57142857142857</ele><time>2026-04-11T14:08:58.034Z</time></trkpt><trkpt lat="44.5080859" lon="11.3772179"><ele>46.857142857142854</ele><time>2026-04-11T14:09:02.036Z</time></trkpt><trkpt lat="44.5081222" lon="11.3773166"><ele>47.14285714285714</ele><time>2026-04-11T14:09:06.034Z</time></trkpt><trkpt lat="44.5081612" lon="11.3773893"><ele>47.42857142857143</ele><time>2026-04-11T14:09:09.035Z</time></trkpt><trkpt lat="44.5081685" lon="11.3774883"><ele>47.71428571428571</ele><time>2026-04-11T14:09:17.035Z</time></trkpt><trkpt lat="44.5082046" lon="11.3775627"><ele>48.0</ele><time>2026-04-11T14:09:21.033Z</time></trkpt><trkpt lat="44.5082494" lon="11.3776274"><ele>48.0</ele><time>2026-04-11T14:09:24.035Z</time></trkpt><trkpt lat="44.5082928" lon="11.3777025"><ele>48.0</ele><time>2026-04-11T14:09:27.035Z</time></trkpt><trkpt lat="44.5083368" lon="11.3777896"><ele>48.0</ele><time>2026-04-11T14:09:30.036Z</time></trkpt><trkpt lat="44.5083782" lon="11.3778619"><ele>48.0</ele><time>2026-04-11T14:09:32.037Z</time></trkpt><trkpt lat="44.5084274" lon="11.3779711"><ele>48.0</ele><time>2026-04-11T14:09:35.037Z</time></trkpt><trkpt lat="44.5084646" lon="11.3780744"><ele>48.0</ele><time>2026-04-11T14:09:38.036Z</time></trkpt><trkpt lat="44.5085043" lon="11.3781503"><ele>48.14285714285714</ele><time>2026-04-11T14:09:41.036Z</time></trkpt><trkpt lat="44.508555" lon="11.3782279"><ele>48.285714285714285</ele><time>2026-04-11T14:09:44.033Z</time></trkpt><trkpt lat="44.5085983" lon="11.3782992"><ele>48.42857142857143</ele><time>2026-04-11T14:09:49.036Z</time></trkpt><trkpt lat="44.5086495" lon="11.3783772"><ele>48.57142857142857</ele><time>2026-04-11T14:09:53.036Z</time></trkpt><trkpt lat="44.5086766" lon="11.378471"><ele>48.714285714285715</ele><time>2026-04-11T14:09:57.036Z</time></trkpt><trkpt lat="44.5087018" lon="11.378569"><ele>48.857142857142854</ele><time>2026-04-11T14:10:01.037Z</time></trkpt><trkpt lat="44.5087058" lon="11.3786806"><ele>49.0</ele><time>2026-04-11T14:10:06.036Z</time></trkpt><trkpt lat="44.5087417" lon="11.3787741"><ele>48.666666666666664</ele><time>2026-04-11T14:10:10.035Z</time></trkpt><trkpt lat="44.5087889" lon="11.378869"><ele>48.33333333333333</ele><time>2026-04-11T14:10:14.036Z</time></trkpt><trkpt lat="44.5088446" lon="11.3789644"><ele>48.0</ele><time>2026-04-11T14:10:17.035Z</time></trkpt><trkpt lat="44.5088911" lon="11.3790668"><ele>47.666666666666664</ele><time>2026-04-11T14:10:20.035Z</time></trkpt><trkpt lat="44.5089176" lon="11.3791739"><ele>47.33333333333333</ele><time>2026-04-11T14:10:23.034Z</time></trkpt><trkpt lat="44.5089208" lon="11.3792937"><ele>47.0</ele><time>2026-04-11T14:10:26.035Z</time></trkpt><trkpt lat="44.5089261" lon="11.379405"><ele>47.0</ele><time>2026-04-11T14:10:29.035Z</time></trkpt><trkpt lat="44.5089296" lon="11.3795028"><ele>47.0</ele><time>2026-04-11T14:10:32.035Z</time></trkpt><trkpt lat="44.5089523" lon="11.379599"><ele>47.0</ele><time>2026-04-11T14:10:37.035Z</time></trkpt><trkpt lat="44.5090109" lon="11.3796415"><ele>47.0</ele><time>2026-04-11T14:10:41.036Z</time></trkpt><trkpt lat="44.5090837" lon="11.3797208"><ele>47.0</ele><time>2026-04-11T14:10:44.034Z</time></trkpt><trkpt lat="44.5091146" lon="11.3798277"><ele>47.0</ele><time>2026-04-11T14:10:47.035Z</time></trkpt><trkpt lat="44.5091504" lon="11.3799186"><ele>46.83333333333333</ele><time>2026-04-11T14:10:50.036Z</time></trkpt><trkpt lat="44.5091997" lon="11.3800291"><ele>46.666666666666664</ele><time>2026-04-11T14:10:53.034Z</time></trkpt><trkpt lat="44.5092577" lon="11.380128"><ele>46.5</ele><time>2026-04-11T14:10:56.035Z</time></trkpt><trkpt lat="44.5093054" lon="11.3802077"><ele>46.333333333333336</ele><time>2026-04-11T14:10:59.034Z</time></trkpt><trkpt lat="44.5093337" lon="11.3802979"><ele>46.16666666666667</ele><time>2026-04-11T14:11:02.036Z</time></trkpt><trkpt lat="44.5093591" lon="11.3803911"><ele>46.0</ele><time>2026-04-11T14:11:05.035Z</time></trkpt><trkpt lat="44.509388" lon="11.3804811"><ele>46.142857142857146</ele><time>2026-04-11T14:11:08.035Z</time></trkpt><trkpt lat="44.5094273" lon="11.3805754"><ele>46.285714285714285</ele><time>2026-04-11T14:11:12.037Z</time></trkpt><trkpt lat="44.5094749" lon="11.3806668"><ele>46.42857142857143</ele><time>2026-04-11T14:11:16.036Z</time></trkpt><trkpt lat="44.5095135" lon="11.3807422"><ele>46.57142857142857</ele><time>2026-04-11T14:11:19.035Z</time></trkpt><trkpt lat="44.5095474" lon="11.3808205"><ele>46.71428571428571</ele><time>2026-04-11T14:11:22.035Z</time></trkpt><trkpt lat="44.5095881" lon="11.3808926"><ele>46.857142857142854</ele><time>2026-04-11T14:11:25.035Z</time></trkpt><trkpt lat="44.509621" lon="11.380977"><ele>47.0</ele><time>2026-04-11T14:11:28.036Z</time></trkpt><trkpt lat="44.5096554" lon="11.3810652"><ele>47.0</ele><time>2026-04-11T14:11:31.038Z</time></trkpt><trkpt lat="44.5097041" lon="11.3811474"><ele>47.0</ele><time>2026-04-11T14:11:34.035Z</time></trkpt><trkpt lat="44.5097558" lon="11.3812301"><ele>47.0</ele><time>2026-04-11T14:11:37.035Z</time></trkpt><trkpt lat="44.5097968" lon="11.3813141"><ele>47.0</ele><time>2026-04-11T14:11:40.037Z</time></trkpt><trkpt lat="44.5098322" lon="11.3813978"><ele>47.0</ele><time>2026-04-11T14:11:43.036Z</time></trkpt><trkpt lat="44.5098601" lon="11.3814855"><ele>47.0</ele><time>2026-04-11T14:11:46.034Z</time></trkpt><trkpt lat="44.5098952" lon="11.3815699"><ele>47.0</ele><time>2026-04-11T14:11:49.035Z</time></trkpt><trkpt lat="44.5099288" lon="11.3816574"><ele>47.0</ele><time>2026-04-11T14:11:52.033Z</time></trkpt><trkpt lat="44.5099591" lon="11.3817436"><ele>47.0</ele><time>2026-04-11T14:11:55.036Z</time></trkpt><trkpt lat="44.5099918" lon="11.3818486"><ele>47.0</ele><time>2026-04-11T14:11:59.036Z</time></trkpt><trkpt lat="44.5100274" lon="11.3819526"><ele>47.0</ele><time>2026-04-11T14:12:03.036Z</time></trkpt><trkpt lat="44.5100599" lon="11.3820359"><ele>47.0</ele><time>2026-04-11T14:12:06.036Z</time></trkpt><trkpt lat="44.5100824" lon="11.3821215"><ele>47.0</ele><time>2026-04-11T14:12:10.037Z</time></trkpt><trkpt lat="44.5100964" lon="11.3822094"><ele>47.0</ele><time>2026-04-11T14:12:16.036Z</time></trkpt><trkpt lat="44.5101249" lon="11.3822884"><ele>46.857142857142854</ele><time>2026-04-11T14:12:21.036Z</time></trkpt><trkpt lat="44.5101614" lon="11.3823678"><ele>46.71428571428571</ele><time>2026-04-11T14:12:24.037Z</time></trkpt><trkpt lat="44.5102072" lon="11.3824496"><ele>46.57142857142857</ele><time>2026-04-11T14:12:27.036Z</time></trkpt><trkpt lat="44.510256" lon="11.382531"><ele>46.42857142857143</ele><time>2026-04-11T14:12:30.038Z</time></trkpt><trkpt lat="44.5103066" lon="11.3826091"><ele>46.285714285714285</ele><time>2026-04-11T14:12:33.035Z</time></trkpt><trkpt lat="44.5103611" lon="11.382674"><ele>46.142857142857146</ele><time>2026-04-11T14:12:36.037Z</time></trkpt><trkpt lat="44.5104231" lon="11.3827476"><ele>46.0</ele><time>2026-04-11T14:12:40.035Z</time></trkpt><trkpt lat="44.5104638" lon="11.3828216"><ele>46.0</ele><time>2026-04-11T14:12:43.035Z</time></trkpt><trkpt lat="44.5104384" lon="11.3829264"><ele>46.0</ele><time>2026-04-11T14:12:48.036Z</time></trkpt><trkpt lat="44.5103647" lon="11.3829829"><ele>46.0</ele><time>2026-04-11T14:12:51.035Z</time></trkpt><trkpt lat="44.5103106" lon="11.383033"><ele>46.0</ele><time>2026-04-11T14:12:54.037Z</time></trkpt><trkpt lat="44.5102527" lon="11.3830828"><ele>46.0</ele><time>2026-04-11T14:12:58.036Z</time></trkpt><trkpt lat="44.5101939" lon="11.3831437"><ele>46.0</ele><time>2026-04-11T14:13:01.035Z</time></trkpt><trkpt lat="44.5101192" lon="11.3832116"><ele>46.0</ele><time>2026-04-11T14:13:04.036Z</time></trkpt><trkpt lat="44.510054" lon="11.3832789"><ele>46.0</ele><time>2026-04-11T14:13:07.037Z</time></trkpt><trkpt lat="44.510003" lon="11.3833616"><ele>46.0</ele><time>2026-04-11T14:13:11.038Z</time></trkpt><trkpt lat="44.5099506" lon="11.383431"><ele>46.0</ele><time>2026-04-11T14:13:15.036Z</time></trkpt><trkpt lat="44.5099033" lon="11.3834962"><ele>46.0</ele><time>2026-04-11T14:13:18.035Z</time></trkpt><trkpt lat="44.5098658" lon="11.3835732"><ele>46.0</ele><time>2026-04-11T14:13:21.037Z</time></trkpt><trkpt lat="44.5098369" lon="11.3836587"><ele>46.0</ele><time>2026-04-11T14:13:24.037Z</time></trkpt><trkpt lat="44.5097897" lon="11.3837339"><ele>46.0</ele><time>2026-04-11T14:13:27.036Z</time></trkpt><trkpt lat="44.5097355" lon="11.3838071"><ele>46.0</ele><time>2026-04-11T14:13:30.037Z</time></trkpt><trkpt lat="44.5096687" lon="11.3838782"><ele>46.0</ele><time>2026-04-11T14:13:33.035Z</time></trkpt><trkpt lat="44.5095934" lon="11.3839285"><ele>46.0</ele><time>2026-04-11T14:13:36.036Z</time></trkpt><trkpt lat="44.5095364" lon="11.3839851"><ele>46.0</ele><time>2026-04-11T14:13:39.036Z</time></trkpt><trkpt lat="44.5094927" lon="11.3840589"><ele>46.0</ele><time>2026-04-11T14:13:42.037Z</time></trkpt><trkpt lat="44.5094414" lon="11.38413"><ele>45.66666666666667</ele><time>2026-04-11T14:13:45.035Z</time></trkpt><trkpt lat="44.5093787" lon="11.3842049"><ele>45.333333333333336</ele><time>2026-04-11T14:13:48.037Z</time></trkpt><trkpt lat="44.5093249" lon="11.3842727"><ele>45.0</ele><time>2026-04-11T14:13:51.035Z</time></trkpt><trkpt lat="44.5092796" lon="11.3843468"><ele>44.666666666666664</ele><time>2026-04-11T14:13:54.037Z</time></trkpt><trkpt lat="44.5092431" lon="11.384437"><ele>44.33333333333333</ele><time>2026-04-11T14:13:57.036Z</time></trkpt><trkpt lat="44.5091976" lon="11.3845057"><ele>44.0</ele><time>2026-04-11T14:14:00.036Z</time></trkpt><trkpt lat="44.5091428" lon="11.3845967"><ele>43.83333333333333</ele><time>2026-04-11T14:14:04.036Z</time></trkpt><trkpt lat="44.5091001" lon="11.384713"><ele>43.666666666666664</ele><time>2026-04-11T14:14:07.036Z</time></trkpt><trkpt lat="44.509057" lon="11.3847884"><ele>43.5</ele><time>2026-04-11T14:14:09.036Z</time></trkpt><trkpt lat="44.5090096" lon="11.3848716"><ele>43.333333333333336</ele><time>2026-04-11T14:14:12.038Z</time></trkpt><trkpt lat="44.5089626" lon="11.3849716"><ele>43.16666666666667</ele><time>2026-04-11T14:14:16.038Z</time></trkpt><trkpt lat="44.5089164" lon="11.3850579"><ele>43.0</ele><time>2026-04-11T14:14:19.036Z</time></trkpt><trkpt lat="44.5088752" lon="11.3851762"><ele>43.0</ele><time>2026-04-11T14:14:22.037Z</time></trkpt><trkpt lat="44.5088471" lon="11.3852955"><ele>43.0</ele><time>2026-04-11T14:14:25.036Z</time></trkpt><trkpt lat="44.5088161" lon="11.3854028"><ele>43.0</ele><time>2026-04-11T14:14:28.035Z</time></trkpt><trkpt lat="44.5087776" lon="11.3854861"><ele>43.0</ele><time>2026-04-11T14:14:31.037Z</time></trkpt><trkpt lat="44.5087357" lon="11.3855734"><ele>43.0</ele><time>2026-04-11T14:14:35.037Z</time></trkpt><trkpt lat="44.5086912" lon="11.385661"><ele>43.0</ele><time>2026-04-11T14:14:39.036Z</time></trkpt><trkpt lat="44.5086485" lon="11.3857361"><ele>42.85714285714286</ele><time>2026-04-11T14:14:42.038Z</time></trkpt><trkpt lat="44.5086038" lon="11.3858223"><ele>42.714285714285715</ele><time>2026-04-11T14:14:45.036Z</time></trkpt><trkpt lat="44.508568" lon="11.3859118"><ele>42.57142857142857</ele><time>2026-04-11T14:14:48.037Z</time></trkpt><trkpt lat="44.5085265" lon="11.3860013"><ele>42.42857142857143</ele><time>2026-04-11T14:14:51.035Z</time></trkpt><trkpt lat="44.5084949" lon="11.3860979"><ele>42.285714285714285</ele><time>2026-04-11T14:14:54.037Z</time></trkpt><trkpt lat="44.5084702" lon="11.3861846"><ele>42.142857142857146</ele><time>2026-04-11T14:14:57.036Z</time></trkpt><trkpt lat="44.5084423" lon="11.3862815"><ele>42.0</ele><time>2026-04-11T14:15:00.036Z</time></trkpt><trkpt lat="44.5084076" lon="11.386372"><ele>42.333333333333336</ele><time>2026-04-11T14:15:03.036Z</time></trkpt><trkpt lat="44.5083635" lon="11.3864511"><ele>42.666666666666664</ele><time>2026-04-11T14:15:06.038Z</time></trkpt><trkpt lat="44.5083226" lon="11.386549"><ele>43.0</ele><time>2026-04-11T14:15:09.037Z</time></trkpt><trkpt lat="44.508288" lon="11.3866573"><ele>43.33333333333333</ele><time>2026-04-11T14:15:12.035Z</time></trkpt><trkpt lat="44.5082603" lon="11.3867632"><ele>43.666666666666664</ele><time>2026-04-11T14:15:15.036Z</time></trkpt><trkpt lat="44.5082373" lon="11.386878"><ele>44.0</ele><time>2026-04-11T14:15:18.039Z</time></trkpt><trkpt lat="44.5082126" lon="11.3869887"><ele>44.0</ele><time>2026-04-11T14:15:21.036Z</time></trkpt><trkpt lat="44.5081858" lon="11.3870866"><ele>44.0</ele><time>2026-04-11T14:15:24.037Z</time></trkpt><trkpt lat="44.5081711" lon="11.3871957"><ele>44.0</ele><time>2026-04-11T14:15:27.036Z</time></trkpt><trkpt lat="44.508152" lon="11.3872996"><ele>44.0</ele><time>2026-04-11T14:15:30.038Z</time></trkpt><trkpt lat="44.5081352" lon="11.3874148"><ele>44.0</ele><time>2026-04-11T14:15:33.035Z</time></trkpt><trkpt lat="44.508127" lon="11.3875337"><ele>44.0</ele><time>2026-04-11T14:15:36.037Z</time></trkpt><trkpt lat="44.5081091" lon="11.3876486"><ele>44.142857142857146</ele><time>2026-04-11T14:15:39.035Z</time></trkpt><trkpt lat="44.5080928" lon="11.3877564"><ele>44.285714285714285</ele><time>2026-04-11T14:15:42.035Z</time></trkpt><trkpt lat="44.5080745" lon="11.3878552"><ele>44.42857142857143</ele><time>2026-04-11T14:15:45.035Z</time></trkpt><trkpt lat="44.5080593" lon="11.3879675"><ele>44.57142857142857</ele><time>2026-04-11T14:15:48.037Z</time></trkpt><trkpt lat="44.5080425" lon="11.3880671"><ele>44.714285714285715</ele><time>2026-04-11T14:15:51.034Z</time></trkpt><trkpt lat="44.50802" lon="11.3881555"><ele>44.857142857142854</ele><time>2026-04-11T14:15:54.037Z</time></trkpt><trkpt lat="44.5079967" lon="11.3882448"><ele>45.0</ele><time>2026-04-11T14:15:58.035Z</time></trkpt><trkpt lat="44.5079825" lon="11.388361"><ele>45.0</ele><time>2026-04-11T14:16:02.036Z</time></trkpt><trkpt lat="44.5079564" lon="11.388473"><ele>45.0</ele><time>2026-04-11T14:16:05.036Z</time></trkpt><trkpt lat="44.5079332" lon="11.3885706"><ele>45.0</ele><time>2026-04-11T14:16:08.037Z</time></trkpt><trkpt lat="44.5079109" lon="11.3886814"><ele>45.0</ele><time>2026-04-11T14:16:11.035Z</time></trkpt><trkpt lat="44.5078876" lon="11.388781"><ele>45.0</ele><time>2026-04-11T14:16:14.036Z</time></trkpt><trkpt lat="44.5078609" lon="11.388862"><ele>45.0</ele><time>2026-04-11T14:16:17.035Z</time></trkpt><trkpt lat="44.5078322" lon="11.3889743"><ele>45.0</ele><time>2026-04-11T14:16:21.035Z</time></trkpt><trkpt lat="44.5078242" lon="11.3890909"><ele>45.0</ele><time>2026-04-11T14:16:24.035Z</time></trkpt><trkpt lat="44.5078277" lon="11.3891926"><ele>45.0</ele><time>2026-04-11T14:16:27.036Z</time></trkpt><trkpt lat="44.5078225" lon="11.3893003"><ele>45.0</ele><time>2026-04-11T14:16:30.034Z</time></trkpt><trkpt lat="44.5078232" lon="11.389398"><ele>45.0</ele><time>2026-04-11T14:16:33.035Z</time></trkpt><trkpt lat="44.5077904" lon="11.3895064"><ele>45.0</ele><time>2026-04-11T14:16:36.037Z</time></trkpt><trkpt lat="44.5077546" lon="11.3895833"><ele>45.0</ele><time>2026-04-11T14:16:38.036Z</time></trkpt><trkpt lat="44.5077164" lon="11.389668"><ele>45.0</ele><time>2026-04-11T14:16:40.035Z</time></trkpt><trkpt lat="44.5076824" lon="11.3897655"><ele>45.0</ele><time>2026-04-11T14:16:43.035Z</time></trkpt><trkpt lat="44.5076633" lon="11.3898509"><ele>45.0</ele><time>2026-04-11T14:16:46.035Z</time></trkpt><trkpt lat="44.5076408" lon="11.3899459"><ele>45.0</ele><time>2026-04-11T14:16:49.035Z</time></trkpt><trkpt lat="44.5076242" lon="11.3900312"><ele>45.0</ele><time>2026-04-11T14:16:52.036Z</time></trkpt><trkpt lat="44.5076048" lon="11.3901502"><ele>45.0</ele><time>2026-04-11T14:16:56.035Z</time></trkpt><trkpt lat="44.5075915" lon="11.3902628"><ele>45.0</ele><time>2026-04-11T14:17:00.037Z</time></trkpt><trkpt lat="44.5075863" lon="11.390371"><ele>45.0</ele><time>2026-04-11T14:17:04.035Z</time></trkpt><trkpt lat="44.5075926" lon="11.3904609"><ele>45.0</ele><time>2026-04-11T14:17:08.036Z</time></trkpt><trkpt lat="44.5075681" lon="11.3905918"><ele>45.0</ele><time>2026-04-11T14:17:12.036Z</time></trkpt><trkpt lat="44.5075448" lon="11.3907205"><ele>45.0</ele><time>2026-04-11T14:17:15.035Z</time></trkpt><trkpt lat="44.5075367" lon="11.3908149"><ele>45.0</ele><time>2026-04-11T14:17:18.036Z</time></trkpt><trkpt lat="44.507533" lon="11.3909067"><ele>44.857142857142854</ele><time>2026-04-11T14:17:21.036Z</time></trkpt><trkpt lat="44.5074977" lon="11.390999"><ele>44.714285714285715</ele><time>2026-04-11T14:17:24.036Z</time></trkpt><trkpt lat="44.5074594" lon="11.3910861"><ele>44.57142857142857</ele><time>2026-04-11T14:17:27.036Z</time></trkpt><trkpt lat="44.5074476" lon="11.3911878"><ele>44.42857142857143</ele><time>2026-04-11T14:17:30.037Z</time></trkpt><trkpt lat="44.5074537" lon="11.3912901"><ele>44.285714285714285</ele><time>2026-04-11T14:17:33.038Z</time></trkpt><trkpt lat="44.5074893" lon="11.391363"><ele>44.142857142857146</ele><time>2026-04-11T14:17:36.037Z</time></trkpt><trkpt lat="44.5075428" lon="11.3914162"><ele>44.0</ele><time>2026-04-11T14:17:39.036Z</time></trkpt><trkpt lat="44.5076035" lon="11.39148"><ele>44.0</ele><time>2026-04-11T14:17:43.036Z</time></trkpt><trkpt lat="44.5076597" lon="11.391524"><ele>44.0</ele><time>2026-04-11T14:17:46.036Z</time></trkpt><trkpt lat="44.5077298" lon="11.3915733"><ele>44.0</ele><time>2026-04-11T14:17:50.036Z</time></trkpt><trkpt lat="44.5078021" lon="11.3916056"><ele>44.0</ele><time>2026-04-11T14:17:53.036Z</time></trkpt><trkpt lat="44.5078732" lon="11.3916384"><ele>44.0</ele><time>2026-04-11T14:17:56.036Z</time></trkpt><trkpt lat="44.5079381" lon="11.3916765"><ele>44.0</ele><time>2026-04-11T14:17:59.037Z</time></trkpt><trkpt lat="44.5080177" lon="11.391725"><ele>43.33333333333333</ele><time>2026-04-11T14:18:02.035Z</time></trkpt><trkpt lat="44.5080861" lon="11.391788"><ele>42.666666666666664</ele><time>2026-04-11T14:18:05.036Z</time></trkpt><trkpt lat="44.5081318" lon="11.3918643"><ele>42.0</ele><time>2026-04-11T14:18:07.036Z</time></trkpt><trkpt lat="44.5081903" lon="11.3919282"><ele>41.333333333333336</ele><time>2026-04-11T14:18:10.035Z</time></trkpt><trkpt lat="44.508261" lon="11.3919896"><ele>40.66666666666667</ele><time>2026-04-11T14:18:14.036Z</time></trkpt><trkpt lat="44.5083141" lon="11.3920699"><ele>40.0</ele><time>2026-04-11T14:18:18.037Z</time></trkpt><trkpt lat="44.5083558" lon="11.3921468"><ele>40.285714285714285</ele><time>2026-04-11T14:18:22.036Z</time></trkpt><trkpt lat="44.5083874" lon="11.3922517"><ele>40.57142857142857</ele><time>2026-04-11T14:18:26.037Z</time></trkpt><trkpt lat="44.5083798" lon="11.3923585"><ele>40.85714285714286</ele><time>2026-04-11T14:18:29.036Z</time></trkpt><trkpt lat="44.5083526" lon="11.3924555"><ele>41.14285714285714</ele><time>2026-04-11T14:18:32.037Z</time></trkpt><trkpt lat="44.5083169" lon="11.3925543"><ele>41.42857142857143</ele><time>2026-04-11T14:18:35.036Z</time></trkpt><trkpt lat="44.5082812" lon="11.3926391"><ele>41.714285714285715</ele><time>2026-04-11T14:18:38.035Z</time></trkpt><trkpt lat="44.5082623" lon="11.3927253"><ele>42.0</ele><time>2026-04-11T14:18:41.037Z</time></trkpt><trkpt lat="44.5082403" lon="11.3928291"><ele>42.0</ele><time>2026-04-11T14:18:45.037Z</time></trkpt><trkpt lat="44.5082381" lon="11.3929459"><ele>42.0</ele><time>2026-04-11T14:18:49.036Z</time></trkpt><trkpt lat="44.5082555" lon="11.3930369"><ele>42.0</ele><time>2026-04-11T14:18:52.037Z</time></trkpt><trkpt lat="44.5082708" lon="11.3931428"><ele>42.0</ele><time>2026-04-11T14:18:56.036Z</time></trkpt><trkpt lat="44.5082512" lon="11.3932456"><ele>42.0</ele><time>2026-04-11T14:19:00.036Z</time></trkpt><trkpt lat="44.5082347" lon="11.3933393"><ele>42.0</ele><time>2026-04-11T14:19:03.037Z</time></trkpt><trkpt lat="44.5082239" lon="11.3934269"><ele>42.0</ele><time>2026-04-11T14:19:06.037Z</time></trkpt><trkpt lat="44.5081937" lon="11.3935395"><ele>42.285714285714285</ele><time>2026-04-11T14:19:09.035Z</time></trkpt><trkpt lat="44.5081797" lon="11.3936326"><ele>42.57142857142857</ele><time>2026-04-11T14:19:12.038Z</time></trkpt><trkpt lat="44.5081768" lon="11.3937221"><ele>42.85714285714286</ele><time>2026-04-11T14:19:15.037Z</time></trkpt><trkpt lat="44.5081653" lon="11.3938313"><ele>43.14285714285714</ele><time>2026-04-11T14:19:19.035Z</time></trkpt><trkpt lat="44.5081783" lon="11.3939298"><ele>43.42857142857143</ele><time>2026-04-11T14:19:21.036Z</time></trkpt><trkpt lat="44.5081643" lon="11.3940486"><ele>43.714285714285715</ele><time>2026-04-11T14:19:24.036Z</time></trkpt><trkpt lat="44.5081658" lon="11.3941561"><ele>44.0</ele><time>2026-04-11T14:19:27.035Z</time></trkpt><trkpt lat="44.5081602" lon="11.3942593"><ele>44.42857142857143</ele><time>2026-04-11T14:19:30.036Z</time></trkpt><trkpt lat="44.5081372" lon="11.3943425"><ele>44.857142857142854</ele><time>2026-04-11T14:19:33.036Z</time></trkpt><trkpt lat="44.5081253" lon="11.394443"><ele>45.285714285714285</ele><time>2026-04-11T14:19:36.037Z</time></trkpt><trkpt lat="44.5081111" lon="11.3945436"><ele>45.714285714285715</ele><time>2026-04-11T14:19:39.035Z</time></trkpt><trkpt lat="44.5081054" lon="11.3946431"><ele>46.14285714285714</ele><time>2026-04-11T14:19:42.038Z</time></trkpt><trkpt lat="44.5081063" lon="11.3947433"><ele>46.57142857142857</ele><time>2026-04-11T14:19:46.036Z</time></trkpt><trkpt lat="44.5081111" lon="11.3948566"><ele>47.0</ele><time>2026-04-11T14:19:50.036Z</time></trkpt><trkpt lat="44.5081183" lon="11.3949576"><ele>47.14285714285714</ele><time>2026-04-11T14:19:53.038Z</time></trkpt><trkpt lat="44.5081231" lon="11.3950467"><ele>47.285714285714285</ele><time>2026-04-11T14:19:56.037Z</time></trkpt><trkpt lat="44.5081146" lon="11.3951605"><ele>47.42857142857143</ele><time>2026-04-11T14:20:00.037Z</time></trkpt><trkpt lat="44.5081266" lon="11.3952545"><ele>47.57142857142857</ele><time>2026-04-11T14:20:03.035Z</time></trkpt><trkpt lat="44.5081457" lon="11.3953488"><ele>47.714285714285715</ele><time>2026-04-11T14:20:06.037Z</time></trkpt><trkpt lat="44.5081487" lon="11.3954644"><ele>47.857142857142854</ele><time>2026-04-11T14:20:09.035Z</time></trkpt><trkpt lat="44.5081657" lon="11.3955736"><ele>48.0</ele><time>2026-04-11T14:20:12.037Z</time></trkpt><trkpt lat="44.5081632" lon="11.3956853"><ele>47.5</ele><time>2026-04-11T14:20:15.036Z</time></trkpt><trkpt lat="44.5081683" lon="11.3957957"><ele>47.0</ele><time>2026-04-11T14:20:18.037Z</time></trkpt><trkpt lat="44.5081732" lon="11.3958979"><ele>46.5</ele><time>2026-04-11T14:20:21.035Z</time></trkpt><trkpt lat="44.5081815" lon="11.395993"><ele>46.0</ele><time>2026-04-11T14:20:24.038Z</time></trkpt><trkpt lat="44.5081986" lon="11.3960941"><ele>45.5</ele><time>2026-04-11T14:20:27.038Z</time></trkpt><trkpt lat="44.508221" lon="11.3962025"><ele>45.0</ele><time>2026-04-11T14:20:30.038Z</time></trkpt><trkpt lat="44.5082439" lon="11.396308"><ele>44.714285714285715</ele><time>2026-04-11T14:20:33.037Z</time></trkpt><trkpt lat="44.5082629" lon="11.3964219"><ele>44.42857142857143</ele><time>2026-04-11T14:20:36.037Z</time></trkpt><trkpt lat="44.5082639" lon="11.3965263"><ele>44.142857142857146</ele><time>2026-04-11T14:20:39.037Z</time></trkpt><trkpt lat="44.5082762" lon="11.3966374"><ele>43.85714285714286</ele><time>2026-04-11T14:20:42.037Z</time></trkpt><trkpt lat="44.5082734" lon="11.3967261"><ele>43.57142857142857</ele><time>2026-04-11T14:20:45.037Z</time></trkpt><trkpt lat="44.5082822" lon="11.3968193"><ele>43.28571428571429</ele><time>2026-04-11T14:20:53.033Z</time></trkpt><trkpt lat="44.508286" lon="11.3969233"><ele>43.0</ele><time>2026-04-11T14:20:56.033Z</time></trkpt><trkpt lat="44.5083039" lon="11.3970388"><ele>43.0</ele><time>2026-04-11T14:20:59.035Z</time></trkpt><trkpt lat="44.5083193" lon="11.3971468"><ele>43.0</ele><time>2026-04-11T14:21:02.035Z</time></trkpt><trkpt lat="44.5083378" lon="11.3972576"><ele>43.0</ele><time>2026-04-11T14:21:05.037Z</time></trkpt><trkpt lat="44.5083561" lon="11.3973709"><ele>43.0</ele><time>2026-04-11T14:21:08.037Z</time></trkpt><trkpt lat="44.5083789" lon="11.3974724"><ele>43.0</ele><time>2026-04-11T14:21:11.036Z</time></trkpt><trkpt lat="44.5083868" lon="11.3975778"><ele>43.0</ele><time>2026-04-11T14:21:14.037Z</time></trkpt><trkpt lat="44.508416" lon="11.3976783"><ele>43.142857142857146</ele><time>2026-04-11T14:21:17.035Z</time></trkpt><trkpt lat="44.5084552" lon="11.3977723"><ele>43.285714285714285</ele><time>2026-04-11T14:21:20.036Z</time></trkpt><trkpt lat="44.5084852" lon="11.3978679"><ele>43.42857142857143</ele><time>2026-04-11T14:21:23.037Z</time></trkpt><trkpt lat="44.5085264" lon="11.3979584"><ele>43.57142857142857</ele><time>2026-04-11T14:21:26.035Z</time></trkpt><trkpt lat="44.5085732" lon="11.398042"><ele>43.714285714285715</ele><time>2026-04-11T14:21:29.035Z</time></trkpt><trkpt lat="44.5086125" lon="11.3981258"><ele>43.85714285714286</ele><time>2026-04-11T14:21:32.038Z</time></trkpt><trkpt lat="44.5086528" lon="11.3982092"><ele>44.0</ele><time>2026-04-11T14:21:35.036Z</time></trkpt><trkpt lat="44.5086823" lon="11.398309"><ele>44.0</ele><time>2026-04-11T14:21:38.037Z</time></trkpt><trkpt lat="44.5087144" lon="11.3984162"><ele>44.0</ele><time>2026-04-11T14:21:41.037Z</time></trkpt><trkpt lat="44.5087426" lon="11.3985078"><ele>44.0</ele><time>2026-04-11T14:21:44.036Z</time></trkpt><trkpt lat="44.5087716" lon="11.3985932"><ele>44.0</ele><time>2026-04-11T14:21:47.035Z</time></trkpt><trkpt lat="44.5087998" lon="11.3986828"><ele>44.0</ele><time>2026-04-11T14:21:50.037Z</time></trkpt><trkpt lat="44.5088375" lon="11.3987835"><ele>44.0</ele><time>2026-04-11T14:21:54.036Z</time></trkpt><trkpt lat="44.5088714" lon="11.3988697"><ele>44.0</ele><time>2026-04-11T14:21:57.036Z</time></trkpt><trkpt lat="44.5089102" lon="11.3989597"><ele>44.0</ele><time>2026-04-11T14:22:00.037Z</time></trkpt><trkpt lat="44.5089375" lon="11.3990435"><ele>44.0</ele><time>2026-04-11T14:22:03.035Z</time></trkpt><trkpt lat="44.5089791" lon="11.3991276"><ele>44.0</ele><time>2026-04-11T14:22:06.037Z</time></trkpt><trkpt lat="44.5090201" lon="11.3992101"><ele>44.0</ele><time>2026-04-11T14:22:09.035Z</time></trkpt><trkpt lat="44.5090513" lon="11.3992964"><ele>44.0</ele><time>2026-04-11T14:22:12.035Z</time></trkpt><trkpt lat="44.5090832" lon="11.3993899"><ele>44.0</ele><time>2026-04-11T14:22:15.035Z</time></trkpt><trkpt lat="44.5091007" lon="11.3994859"><ele>44.0</ele><time>2026-04-11T14:22:18.036Z</time></trkpt><trkpt lat="44.509105" lon="11.3995774"><ele>43.57142857142857</ele><time>2026-04-11T14:22:21.036Z</time></trkpt><trkpt lat="44.509119" lon="11.3996741"><ele>43.14285714285714</ele><time>2026-04-11T14:22:24.037Z</time></trkpt><trkpt lat="44.5091407" lon="11.3997605"><ele>42.71428571428571</ele><time>2026-04-11T14:22:27.037Z</time></trkpt><trkpt lat="44.509161" lon="11.3998774"><ele>42.285714285714285</ele><time>2026-04-11T14:22:31.036Z</time></trkpt><trkpt lat="44.5091807" lon="11.3999644"><ele>41.857142857142854</ele><time>2026-04-11T14:22:34.037Z</time></trkpt><trkpt lat="44.5092059" lon="11.4000602"><ele>41.42857142857142</ele><time>2026-04-11T14:22:37.037Z</time></trkpt><trkpt lat="44.5092289" lon="11.4001514"><ele>41.0</ele><time>2026-04-11T14:22:40.037Z</time></trkpt><trkpt lat="44.5092385" lon="11.4002481"><ele>41.0</ele><time>2026-04-11T14:22:43.037Z</time></trkpt><trkpt lat="44.5092481" lon="11.4003639"><ele>41.0</ele><time>2026-04-11T14:22:47.036Z</time></trkpt><trkpt lat="44.5092608" lon="11.4004531"><ele>41.0</ele><time>2026-04-11T14:22:50.035Z</time></trkpt><trkpt lat="44.5092593" lon="11.4005416"><ele>41.0</ele><time>2026-04-11T14:22:53.037Z</time></trkpt><trkpt lat="44.5092374" lon="11.4006494"><ele>41.0</ele><time>2026-04-11T14:22:59.035Z</time></trkpt><trkpt lat="44.5092566" lon="11.4007593"><ele>41.0</ele><time>2026-04-11T14:23:02.035Z</time></trkpt><trkpt lat="44.5092797" lon="11.4008667"><ele>40.83333333333333</ele><time>2026-04-11T14:23:05.035Z</time></trkpt><trkpt lat="44.509304" lon="11.4009774"><ele>40.666666666666664</ele><time>2026-04-11T14:23:08.037Z</time></trkpt><trkpt lat="44.5093187" lon="11.4010834"><ele>40.5</ele><time>2026-04-11T14:23:11.037Z</time></trkpt><trkpt lat="44.5093343" lon="11.4011837"><ele>40.333333333333336</ele><time>2026-04-11T14:23:14.037Z</time></trkpt><trkpt lat="44.5093438" lon="11.4012895"><ele>40.16666666666667</ele><time>2026-04-11T14:23:17.037Z</time></trkpt><trkpt lat="44.5093564" lon="11.4013863"><ele>40.0</ele><time>2026-04-11T14:23:20.037Z</time></trkpt><trkpt lat="44.5093659" lon="11.4014863"><ele>40.0</ele><time>2026-04-11T14:23:23.036Z</time></trkpt><trkpt lat="44.509383" lon="11.4015839"><ele>40.0</ele><time>2026-04-11T14:23:26.038Z</time></trkpt><trkpt lat="44.5093995" lon="11.4016789"><ele>40.0</ele><time>2026-04-11T14:23:29.036Z</time></trkpt><trkpt lat="44.5094185" lon="11.4017632"><ele>40.0</ele><time>2026-04-11T14:23:32.038Z</time></trkpt><trkpt lat="44.5094409" lon="11.4018459"><ele>40.0</ele><time>2026-04-11T14:23:35.036Z</time></trkpt><trkpt lat="44.5094735" lon="11.4019392"><ele>40.0</ele><time>2026-04-11T14:23:38.039Z</time></trkpt><trkpt lat="44.509492" lon="11.4020336"><ele>40.0</ele><time>2026-04-11T14:23:41.035Z</time></trkpt><trkpt lat="44.5095071" lon="11.4021284"><ele>40.0</ele><time>2026-04-11T14:23:44.038Z</time></trkpt><trkpt lat="44.5095203" lon="11.4022198"><ele>40.0</ele><time>2026-04-11T14:23:47.037Z</time></trkpt><trkpt lat="44.5095256" lon="11.402313"><ele>40.0</ele><time>2026-04-11T14:23:50.036Z</time></trkpt><trkpt lat="44.5095239" lon="11.4024121"><ele>40.0</ele><time>2026-04-11T14:23:53.035Z</time></trkpt><trkpt lat="44.5095298" lon="11.4025125"><ele>40.0</ele><time>2026-04-11T14:23:56.035Z</time></trkpt><trkpt lat="44.5095392" lon="11.4026087"><ele>40.0</ele><time>2026-04-11T14:23:59.035Z</time></trkpt><trkpt lat="44.5095546" lon="11.4027125"><ele>40.0</ele><time>2026-04-11T14:24:02.035Z</time></trkpt><trkpt lat="44.5095609" lon="11.4028237"><ele>39.857142857142854</ele><time>2026-04-11T14:24:05.035Z</time></trkpt><trkpt lat="44.5095772" lon="11.4029255"><ele>39.714285714285715</ele><time>2026-04-11T14:24:08.037Z</time></trkpt><trkpt lat="44.5095981" lon="11.4030177"><ele>39.57142857142857</ele><time>2026-04-11T14:24:11.038Z</time></trkpt><trkpt lat="44.5096156" lon="11.4031089"><ele>39.42857142857143</ele><time>2026-04-11T14:24:14.038Z</time></trkpt><trkpt lat="44.5096359" lon="11.4032004"><ele>39.285714285714285</ele><time>2026-04-11T14:24:17.035Z</time></trkpt><trkpt lat="44.5096556" lon="11.4032931"><ele>39.142857142857146</ele><time>2026-04-11T14:24:20.037Z</time></trkpt><trkpt lat="44.5096702" lon="11.4034016"><ele>39.0</ele><time>2026-04-11T14:24:23.037Z</time></trkpt><trkpt lat="44.509685" lon="11.4035017"><ele>38.85714285714286</ele><time>2026-04-11T14:24:26.036Z</time></trkpt><trkpt lat="44.5096985" lon="11.4036044"><ele>38.71428571428571</ele><time>2026-04-11T14:24:29.036Z</time></trkpt><trkpt lat="44.5097075" lon="11.403706"><ele>38.57142857142857</ele><time>2026-04-11T14:24:32.035Z</time></trkpt><trkpt lat="44.509722" lon="11.4038012"><ele>38.42857142857143</ele><time>2026-04-11T14:24:35.036Z</time></trkpt><trkpt lat="44.5097382" lon="11.4039036"><ele>38.28571428571429</ele><time>2026-04-11T14:24:38.037Z</time></trkpt><trkpt lat="44.5097507" lon="11.403999"><ele>38.14285714285714</ele><time>2026-04-11T14:24:41.035Z</time></trkpt><trkpt lat="44.5097659" lon="11.404088"><ele>38.0</ele><time>2026-04-11T14:24:44.035Z</time></trkpt><trkpt lat="44.5097706" lon="11.4041807"><ele>38.0</ele><time>2026-04-11T14:24:47.035Z</time></trkpt><trkpt lat="44.5097827" lon="11.4042736"><ele>38.0</ele><time>2026-04-11T14:24:50.035Z</time></trkpt><trkpt lat="44.5097946" lon="11.4043652"><ele>38.0</ele><time>2026-04-11T14:24:53.036Z</time></trkpt><trkpt lat="44.5098145" lon="11.4044812"><ele>38.0</ele><time>2026-04-11T14:24:57.037Z</time></trkpt><trkpt lat="44.5098232" lon="11.4045868"><ele>38.0</ele><time>2026-04-11T14:25:00.037Z</time></trkpt><trkpt lat="44.5098363" lon="11.404685"><ele>38.0</ele><time>2026-04-11T14:25:03.035Z</time></trkpt><trkpt lat="44.509847" lon="11.4047794"><ele>38.0</ele><time>2026-04-11T14:25:06.037Z</time></trkpt><trkpt lat="44.5098621" lon="11.404873"><ele>38.0</ele><time>2026-04-11T14:25:09.035Z</time></trkpt><trkpt lat="44.5098749" lon="11.4049738"><ele>38.0</ele><time>2026-04-11T14:25:12.036Z</time></trkpt><trkpt lat="44.509894" lon="11.4050713"><ele>38.0</ele><time>2026-04-11T14:25:15.036Z</time></trkpt><trkpt lat="44.5099084" lon="11.4051686"><ele>38.0</ele><time>2026-04-11T14:25:18.037Z</time></trkpt><trkpt lat="44.5099227" lon="11.4052605"><ele>38.0</ele><time>2026-04-11T14:25:21.035Z</time></trkpt><trkpt lat="44.5099305" lon="11.4053498"><ele>38.0</ele><time>2026-04-11T14:25:24.033Z</time></trkpt><trkpt lat="44.5099394" lon="11.4054491"><ele>38.0</ele><time>2026-04-11T14:25:27.035Z</time></trkpt><trkpt lat="44.5099551" lon="11.4055506"><ele>38.14285714285714</ele><time>2026-04-11T14:25:30.037Z</time></trkpt><trkpt lat="44.5099671" lon="11.4056455"><ele>38.28571428571429</ele><time>2026-04-11T14:25:33.036Z</time></trkpt><trkpt lat="44.5099761" lon="11.4057489"><ele>38.42857142857143</ele><time>2026-04-11T14:25:36.038Z</time></trkpt><trkpt lat="44.5099954" lon="11.4058489"><ele>38.57142857142857</ele><time>2026-04-11T14:25:39.035Z</time></trkpt><trkpt lat="44.5100067" lon="11.4059412"><ele>38.71428571428571</ele><time>2026-04-11T14:25:42.038Z</time></trkpt><trkpt lat="44.5100253" lon="11.4060435"><ele>38.85714285714286</ele><time>2026-04-11T14:25:45.036Z</time></trkpt><trkpt lat="44.5100363" lon="11.4061428"><ele>39.0</ele><time>2026-04-11T14:25:48.038Z</time></trkpt><trkpt lat="44.5100391" lon="11.406237"><ele>39.285714285714285</ele><time>2026-04-11T14:25:51.036Z</time></trkpt><trkpt lat="44.5100512" lon="11.4063305"><ele>39.57142857142857</ele><time>2026-04-11T14:25:54.037Z</time></trkpt><trkpt lat="44.5100645" lon="11.4064283"><ele>39.857142857142854</ele><time>2026-04-11T14:25:57.037Z</time></trkpt><trkpt lat="44.5100871" lon="11.4065355"><ele>40.14285714285714</ele><time>2026-04-11T14:26:00.035Z</time></trkpt><trkpt lat="44.510115" lon="11.4066286"><ele>40.42857142857143</ele><time>2026-04-11T14:26:03.037Z</time></trkpt><trkpt lat="44.5101398" lon="11.406726"><ele>40.71428571428571</ele><time>2026-04-11T14:26:06.037Z</time></trkpt><trkpt lat="44.5101622" lon="11.406813"><ele>41.0</ele><time>2026-04-11T14:26:09.035Z</time></trkpt><trkpt lat="44.5101753" lon="11.4069023"><ele>40.99999999999999</ele><time>2026-04-11T14:26:12.037Z</time></trkpt><trkpt lat="44.5101823" lon="11.407005"><ele>41.0</ele><time>2026-04-11T14:26:15.037Z</time></trkpt><trkpt lat="44.510191" lon="11.4070994"><ele>41.0</ele><time>2026-04-11T14:26:18.037Z</time></trkpt><trkpt lat="44.5101946" lon="11.4071912"><ele>41.0</ele><time>2026-04-11T14:26:21.036Z</time></trkpt><trkpt lat="44.5102051" lon="11.4072853"><ele>41.0</ele><time>2026-04-11T14:26:24.038Z</time></trkpt><trkpt lat="44.5101936" lon="11.4073879"><ele>40.99999999999999</ele><time>2026-04-11T14:26:28.037Z</time></trkpt><trkpt lat="44.5102007" lon="11.4074835"><ele>41.0</ele><time>2026-04-11T14:26:31.036Z</time></trkpt><trkpt lat="44.5102176" lon="11.4075824"><ele>40.99999999999999</ele><time>2026-04-11T14:26:34.038Z</time></trkpt><trkpt lat="44.5102316" lon="11.4076759"><ele>41.0</ele><time>2026-04-11T14:26:37.036Z</time></trkpt><trkpt lat="44.5102457" lon="11.4077785"><ele>41.0</ele><time>2026-04-11T14:26:40.038Z</time></trkpt><trkpt lat="44.5102622" lon="11.4078824"><ele>41.0</ele><time>2026-04-11T14:26:43.037Z</time></trkpt><trkpt lat="44.51027" lon="11.4079857"><ele>41.0</ele><time>2026-04-11T14:26:46.038Z</time></trkpt><trkpt lat="44.5102807" lon="11.4080871"><ele>40.99999999999999</ele><time>2026-04-11T14:26:49.038Z</time></trkpt><trkpt lat="44.5102837" lon="11.4081903"><ele>41.0</ele><time>2026-04-11T14:26:52.035Z</time></trkpt><trkpt lat="44.510288" lon="11.4082916"><ele>40.857142857142854</ele><time>2026-04-11T14:26:55.036Z</time></trkpt><trkpt lat="44.5102912" lon="11.4083897"><ele>40.714285714285715</ele><time>2026-04-11T14:26:58.036Z</time></trkpt><trkpt lat="44.5102987" lon="11.4084826"><ele>40.57142857142857</ele><time>2026-04-11T14:27:01.037Z</time></trkpt><trkpt lat="44.510303" lon="11.4085729"><ele>40.42857142857143</ele><time>2026-04-11T14:27:04.038Z</time></trkpt><trkpt lat="44.5103091" lon="11.4086618"><ele>40.285714285714285</ele><time>2026-04-11T14:27:07.037Z</time></trkpt><trkpt lat="44.5103104" lon="11.4087555"><ele>40.14285714285714</ele><time>2026-04-11T14:27:10.036Z</time></trkpt><trkpt lat="44.5103252" lon="11.40886"><ele>40.0</ele><time>2026-04-11T14:27:13.038Z</time></trkpt><trkpt lat="44.5103681" lon="11.4089401"><ele>40.333333333333336</ele><time>2026-04-11T14:27:16.034Z</time></trkpt><trkpt lat="44.5104075" lon="11.4090127"><ele>40.66666666666667</ele><time>2026-04-11T14:27:19.038Z</time></trkpt><trkpt lat="44.510424" lon="11.4091132"><ele>41.0</ele><time>2026-04-11T14:27:23.038Z</time></trkpt><trkpt lat="44.5104245" lon="11.4092333"><ele>41.333333333333336</ele><time>2026-04-11T14:27:27.035Z</time></trkpt><trkpt lat="44.5104165" lon="11.4093431"><ele>41.666666666666664</ele><time>2026-04-11T14:27:31.035Z</time></trkpt><trkpt lat="44.5104087" lon="11.4094334"><ele>42.0</ele><time>2026-04-11T14:27:34.037Z</time></trkpt><trkpt lat="44.5104122" lon="11.4095543"><ele>42.166666666666664</ele><time>2026-04-11T14:27:38.037Z</time></trkpt><trkpt lat="44.5104103" lon="11.4096622"><ele>42.333333333333336</ele><time>2026-04-11T14:27:42.037Z</time></trkpt><trkpt lat="44.5104035" lon="11.4097798"><ele>42.5</ele><time>2026-04-11T14:27:46.034Z</time></trkpt><trkpt lat="44.5103959" lon="11.409885"><ele>42.66666666666667</ele><time>2026-04-11T14:27:49.035Z</time></trkpt><trkpt lat="44.510395" lon="11.4100036"><ele>42.833333333333336</ele><time>2026-04-11T14:27:53.035Z</time></trkpt><trkpt lat="44.5103896" lon="11.4101054"><ele>43.0</ele><time>2026-04-11T14:27:56.036Z</time></trkpt><trkpt lat="44.5104008" lon="11.410212"><ele>43.00000000000001</ele><time>2026-04-11T14:28:00.038Z</time></trkpt><trkpt lat="44.5104073" lon="11.4103297"><ele>43.0</ele><time>2026-04-11T14:28:04.035Z</time></trkpt><trkpt lat="44.5104052" lon="11.4104337"><ele>43.0</ele><time>2026-04-11T14:28:07.037Z</time></trkpt><trkpt lat="44.5104064" lon="11.4105245"><ele>43.0</ele><time>2026-04-11T14:28:10.036Z</time></trkpt><trkpt lat="44.5104111" lon="11.4106436"><ele>43.0</ele><time>2026-04-11T14:28:14.035Z</time></trkpt><trkpt lat="44.510416" lon="11.4107431"><ele>43.00000000000001</ele><time>2026-04-11T14:28:17.037Z</time></trkpt><trkpt lat="44.5104178" lon="11.4108362"><ele>43.0</ele><time>2026-04-11T14:28:20.036Z</time></trkpt><trkpt lat="44.5104268" lon="11.4109334"><ele>42.85714285714286</ele><time>2026-04-11T14:28:23.037Z</time></trkpt><trkpt lat="44.5104406" lon="11.4110381"><ele>42.714285714285715</ele><time>2026-04-11T14:28:26.037Z</time></trkpt><trkpt lat="44.51045" lon="11.4111463"><ele>42.57142857142857</ele><time>2026-04-11T14:28:29.036Z</time></trkpt><trkpt lat="44.5104549" lon="11.4112522"><ele>42.42857142857143</ele><time>2026-04-11T14:28:32.036Z</time></trkpt><trkpt lat="44.5104568" lon="11.4113511"><ele>42.285714285714285</ele><time>2026-04-11T14:28:35.037Z</time></trkpt><trkpt lat="44.5104693" lon="11.4114434"><ele>42.142857142857146</ele><time>2026-04-11T14:28:38.037Z</time></trkpt><trkpt lat="44.5104788" lon="11.411535"><ele>42.0</ele><time>2026-04-11T14:28:41.036Z</time></trkpt><trkpt lat="44.510497" lon="11.4116328"><ele>42.0</ele><time>2026-04-11T14:28:44.035Z</time></trkpt><trkpt lat="44.5105053" lon="11.4117277"><ele>42.0</ele><time>2026-04-11T14:28:47.037Z</time></trkpt><trkpt lat="44.5105295" lon="11.4118316"><ele>42.0</ele><time>2026-04-11T14:28:50.038Z</time></trkpt><trkpt lat="44.5105517" lon="11.4119362"><ele>42.0</ele><time>2026-04-11T14:28:53.036Z</time></trkpt><trkpt lat="44.5105713" lon="11.4120357"><ele>42.0</ele><time>2026-04-11T14:28:56.037Z</time></trkpt><trkpt lat="44.510601" lon="11.4121192"><ele>42.0</ele><time>2026-04-11T14:28:59.036Z</time></trkpt><trkpt lat="44.5106314" lon="11.412224"><ele>42.0</ele><time>2026-04-11T14:29:03.037Z</time></trkpt><trkpt lat="44.5106483" lon="11.4123091"><ele>42.142857142857146</ele><time>2026-04-11T14:29:06.037Z</time></trkpt><trkpt lat="44.5106673" lon="11.4124271"><ele>42.285714285714285</ele><time>2026-04-11T14:29:10.035Z</time></trkpt><trkpt lat="44.5106813" lon="11.412523"><ele>42.42857142857143</ele><time>2026-04-11T14:29:13.035Z</time></trkpt><trkpt lat="44.5107058" lon="11.4126313"><ele>42.57142857142857</ele><time>2026-04-11T14:29:17.037Z</time></trkpt><trkpt lat="44.5107155" lon="11.4127244"><ele>42.714285714285715</ele><time>2026-04-11T14:29:20.035Z</time></trkpt><trkpt lat="44.5107361" lon="11.4128203"><ele>42.85714285714286</ele><time>2026-04-11T14:29:23.035Z</time></trkpt><trkpt lat="44.5107549" lon="11.4129171"><ele>43.0</ele><time>2026-04-11T14:29:26.036Z</time></trkpt><trkpt lat="44.5107783" lon="11.4130102"><ele>43.0</ele><time>2026-04-11T14:29:29.036Z</time></trkpt><trkpt lat="44.5108036" lon="11.4131053"><ele>43.0</ele><time>2026-04-11T14:29:32.037Z</time></trkpt><trkpt lat="44.510823" lon="11.4132062"><ele>43.0</ele><time>2026-04-11T14:29:36.037Z</time></trkpt><trkpt lat="44.5108423" lon="11.4133042"><ele>43.0</ele><time>2026-04-11T14:29:40.035Z</time></trkpt><trkpt lat="44.5108609" lon="11.41341"><ele>43.0</ele><time>2026-04-11T14:29:44.037Z</time></trkpt><trkpt lat="44.5108817" lon="11.4135158"><ele>43.0</ele><time>2026-04-11T14:29:48.037Z</time></trkpt><trkpt lat="44.5108886" lon="11.4136331"><ele>43.00000000000001</ele><time>2026-04-11T14:29:52.035Z</time></trkpt><trkpt lat="44.5109088" lon="11.413722"><ele>43.0</ele><time>2026-04-11T14:29:55.033Z</time></trkpt><trkpt lat="44.5109466" lon="11.4138248"><ele>43.0</ele><time>2026-04-11T14:29:59.035Z</time></trkpt><trkpt lat="44.5109732" lon="11.4139055"><ele>43.0</ele><time>2026-04-11T14:30:02.035Z</time></trkpt><trkpt lat="44.5109921" lon="11.4140018"><ele>43.0</ele><time>2026-04-11T14:30:05.035Z</time></trkpt><trkpt lat="44.5110183" lon="11.4141048"><ele>43.00000000000001</ele><time>2026-04-11T14:30:08.037Z</time></trkpt><trkpt lat="44.5110447" lon="11.4142037"><ele>43.0</ele><time>2026-04-11T14:30:11.037Z</time></trkpt><trkpt lat="44.5110617" lon="11.4142971"><ele>43.00000000000001</ele><time>2026-04-11T14:30:14.037Z</time></trkpt><trkpt lat="44.5110833" lon="11.4143853"><ele>43.0</ele><time>2026-04-11T14:30:17.037Z</time></trkpt><trkpt lat="44.5111015" lon="11.4144704"><ele>43.0</ele><time>2026-04-11T14:30:20.037Z</time></trkpt><trkpt lat="44.5111213" lon="11.4145551"><ele>43.0</ele><time>2026-04-11T14:30:23.035Z</time></trkpt><trkpt lat="44.5111494" lon="11.4146418"><ele>43.0</ele><time>2026-04-11T14:30:26.036Z</time></trkpt><trkpt lat="44.5111742" lon="11.4147267"><ele>43.00000000000001</ele><time>2026-04-11T14:30:29.035Z</time></trkpt><trkpt lat="44.5112046" lon="11.4148068"><ele>43.0</ele><time>2026-04-11T14:30:32.036Z</time></trkpt><trkpt lat="44.5112199" lon="11.4149026"><ele>42.714285714285715</ele><time>2026-04-11T14:30:37.038Z</time></trkpt><trkpt lat="44.5111605" lon="11.4149483"><ele>42.42857142857143</ele><time>2026-04-11T14:30:42.038Z</time></trkpt><trkpt lat="44.5110803" lon="11.4149811"><ele>42.14285714285714</ele><time>2026-04-11T14:30:47.035Z</time></trkpt><trkpt lat="44.5110062" lon="11.4149922"><ele>41.85714285714286</ele><time>2026-04-11T14:30:50.037Z</time></trkpt><trkpt lat="44.5109384" lon="11.4149743"><ele>41.57142857142857</ele><time>2026-04-11T14:30:53.036Z</time></trkpt><trkpt lat="44.5108714" lon="11.4149529"><ele>41.285714285714285</ele><time>2026-04-11T14:30:56.037Z</time></trkpt><trkpt lat="44.5108104" lon="11.4149232"><ele>41.0</ele><time>2026-04-11T14:31:00.036Z</time></trkpt><trkpt lat="44.5107554" lon="11.4148737"><ele>40.99999999999999</ele><time>2026-04-11T14:31:03.038Z</time></trkpt><trkpt lat="44.5106955" lon="11.4148142"><ele>41.0</ele><time>2026-04-11T14:31:07.037Z</time></trkpt><trkpt lat="44.5106789" lon="11.4147124"><ele>41.0</ele><time>2026-04-11T14:31:11.037Z</time></trkpt><trkpt lat="44.5106713" lon="11.4146221"><ele>41.0</ele><time>2026-04-11T14:31:14.037Z</time></trkpt><trkpt lat="44.5106623" lon="11.4145053"><ele>41.0</ele><time>2026-04-11T14:31:18.037Z</time></trkpt><trkpt lat="44.5106471" lon="11.4144069"><ele>40.99999999999999</ele><time>2026-04-11T14:31:21.038Z</time></trkpt><trkpt lat="44.5106305" lon="11.4143031"><ele>41.0</ele><time>2026-04-11T14:31:25.037Z</time></trkpt><trkpt lat="44.5106191" lon="11.4141992"><ele>41.285714285714285</ele><time>2026-04-11T14:31:30.037Z</time></trkpt><trkpt lat="44.5106192" lon="11.4141012"><ele>41.57142857142857</ele><time>2026-04-11T14:31:34.035Z</time></trkpt><trkpt lat="44.5106077" lon="11.4139897"><ele>41.85714285714286</ele><time>2026-04-11T14:31:38.035Z</time></trkpt><trkpt lat="44.5105903" lon="11.4138972"><ele>42.14285714285714</ele><time>2026-04-11T14:31:41.037Z</time></trkpt><trkpt lat="44.5105768" lon="11.4138009"><ele>42.42857142857143</ele><time>2026-04-11T14:31:44.035Z</time></trkpt><trkpt lat="44.5105724" lon="11.4137022"><ele>42.714285714285715</ele><time>2026-04-11T14:31:47.038Z</time></trkpt><trkpt lat="44.5105614" lon="11.4136048"><ele>43.0</ele><time>2026-04-11T14:31:50.035Z</time></trkpt><trkpt lat="44.5105385" lon="11.4135198"><ele>43.00000000000001</ele><time>2026-04-11T14:31:53.038Z</time></trkpt><trkpt lat="44.5105178" lon="11.4134074"><ele>43.0</ele><time>2026-04-11T14:31:57.037Z</time></trkpt><trkpt lat="44.5105074" lon="11.4133143"><ele>43.0</ele><time>2026-04-11T14:32:00.038Z</time></trkpt><trkpt lat="44.5104764" lon="11.4131967"><ele>43.0</ele><time>2026-04-11T14:32:03.036Z</time></trkpt><trkpt lat="44.5104652" lon="11.4131028"><ele>43.0</ele><time>2026-04-11T14:32:06.037Z</time></trkpt><trkpt lat="44.5104408" lon="11.4130144"><ele>43.00000000000001</ele><time>2026-04-11T14:32:09.035Z</time></trkpt><trkpt lat="44.5103987" lon="11.4129329"><ele>43.0</ele><time>2026-04-11T14:32:12.035Z</time></trkpt><trkpt lat="44.5103589" lon="11.4128551"><ele>43.16666666666667</ele><time>2026-04-11T14:32:15.037Z</time></trkpt><trkpt lat="44.5103005" lon="11.4127856"><ele>43.333333333333336</ele><time>2026-04-11T14:32:18.037Z</time></trkpt><trkpt lat="44.5102367" lon="11.4127392"><ele>43.5</ele><time>2026-04-11T14:32:21.037Z</time></trkpt><trkpt lat="44.510159" lon="11.412706"><ele>43.666666666666664</ele><time>2026-04-11T14:32:24.035Z</time></trkpt><trkpt lat="44.5100937" lon="11.4126943"><ele>43.83333333333333</ele><time>2026-04-11T14:32:26.037Z</time></trkpt><trkpt lat="44.5100028" lon="11.4126875"><ele>44.0</ele><time>2026-04-11T14:32:29.037Z</time></trkpt><trkpt lat="44.5099362" lon="11.4126964"><ele>44.0</ele><time>2026-04-11T14:32:31.037Z</time></trkpt><trkpt lat="44.5098714" lon="11.412709"><ele>44.0</ele><time>2026-04-11T14:32:33.036Z</time></trkpt><trkpt lat="44.5097882" lon="11.4127335"><ele>44.0</ele><time>2026-04-11T14:32:36.035Z</time></trkpt><trkpt lat="44.5097005" lon="11.4127641"><ele>44.0</ele><time>2026-04-11T14:32:39.035Z</time></trkpt><trkpt lat="44.5096158" lon="11.412782"><ele>44.0</ele><time>2026-04-11T14:32:42.034Z</time></trkpt><trkpt lat="44.5095459" lon="11.4128"><ele>44.0</ele><time>2026-04-11T14:32:45.035Z</time></trkpt><trkpt lat="44.5094734" lon="11.4128091"><ele>43.666666666666664</ele><time>2026-04-11T14:32:48.037Z</time></trkpt><trkpt lat="44.5094026" lon="11.4128304"><ele>43.33333333333333</ele><time>2026-04-11T14:32:51.037Z</time></trkpt><trkpt lat="44.509329" lon="11.4128586"><ele>43.0</ele><time>2026-04-11T14:32:54.037Z</time></trkpt><trkpt lat="44.5092493" lon="11.4128852"><ele>42.666666666666664</ele><time>2026-04-11T14:32:57.036Z</time></trkpt><trkpt lat="44.5091792" lon="11.4129069"><ele>42.333333333333336</ele><time>2026-04-11T14:33:00.038Z</time></trkpt><trkpt lat="44.5091095" lon="11.4129274"><ele>42.0</ele><time>2026-04-11T14:33:03.038Z</time></trkpt><trkpt lat="44.509036" lon="11.412959"><ele>42.0</ele><time>2026-04-11T14:33:06.037Z</time></trkpt><trkpt lat="44.5089625" lon="11.4129804"><ele>42.0</ele><time>2026-04-11T14:33:09.037Z</time></trkpt><trkpt lat="44.5088911" lon="11.4130105"><ele>42.0</ele><time>2026-04-11T14:33:12.037Z</time></trkpt><trkpt lat="44.5088112" lon="11.4130301"><ele>42.0</ele><time>2026-04-11T14:33:15.036Z</time></trkpt><trkpt lat="44.5087352" lon="11.4130472"><ele>42.0</ele><time>2026-04-11T14:33:18.037Z</time></trkpt><trkpt lat="44.5086563" lon="11.4130702"><ele>42.0</ele><time>2026-04-11T14:33:21.036Z</time></trkpt><trkpt lat="44.508587" lon="11.4130907"><ele>42.0</ele><time>2026-04-11T14:33:24.037Z</time></trkpt><trkpt lat="44.5085188" lon="11.4131098"><ele>42.0</ele><time>2026-04-11T14:33:27.036Z</time></trkpt><trkpt lat="44.5084563" lon="11.4131248"><ele>42.0</ele><time>2026-04-11T14:33:30.037Z</time></trkpt><trkpt lat="44.5083802" lon="11.4131529"><ele>42.0</ele><time>2026-04-11T14:33:33.036Z</time></trkpt><trkpt lat="44.5083056" lon="11.4131765"><ele>42.0</ele><time>2026-04-11T14:33:36.038Z</time></trkpt><trkpt lat="44.5082378" lon="11.4131973"><ele>42.0</ele><time>2026-04-11T14:33:39.035Z</time></trkpt><trkpt lat="44.5081704" lon="11.4132158"><ele>42.0</ele><time>2026-04-11T14:33:42.035Z</time></trkpt><trkpt lat="44.5080993" lon="11.4132358"><ele>42.0</ele><time>2026-04-11T14:33:45.037Z</time></trkpt><trkpt lat="44.5080314" lon="11.413262"><ele>42.0</ele><time>2026-04-11T14:33:48.037Z</time></trkpt><trkpt lat="44.5079556" lon="11.4132789"><ele>42.0</ele><time>2026-04-11T14:33:51.035Z</time></trkpt><trkpt lat="44.5078658" lon="11.4133005"><ele>42.0</ele><time>2026-04-11T14:33:54.037Z</time></trkpt><trkpt lat="44.5077879" lon="11.4133142"><ele>42.0</ele><time>2026-04-11T14:33:57.038Z</time></trkpt><trkpt lat="44.5077154" lon="11.4133213"><ele>42.0</ele><time>2026-04-11T14:34:00.038Z</time></trkpt><trkpt lat="44.5076285" lon="11.4133277"><ele>42.0</ele><time>2026-04-11T14:34:04.035Z</time></trkpt><trkpt lat="44.5075547" lon="11.4133118"><ele>42.0</ele><time>2026-04-11T14:34:07.035Z</time></trkpt><trkpt lat="44.5075016" lon="11.413259"><ele>42.0</ele><time>2026-04-11T14:34:10.036Z</time></trkpt><trkpt lat="44.507468" lon="11.4131828"><ele>42.0</ele><time>2026-04-11T14:34:13.038Z</time></trkpt><trkpt lat="44.5074531" lon="11.4130942"><ele>42.0</ele><time>2026-04-11T14:34:16.036Z</time></trkpt><trkpt lat="44.5074435" lon="11.4130032"><ele>42.0</ele><time>2026-04-11T14:34:19.036Z</time></trkpt><trkpt lat="44.507443" lon="11.41289"><ele>42.0</ele><time>2026-04-11T14:34:23.035Z</time></trkpt><trkpt lat="44.5074405" lon="11.4128012"><ele>42.0</ele><time>2026-04-11T14:34:26.034Z</time></trkpt><trkpt lat="44.507438" lon="11.4126976"><ele>42.0</ele><time>2026-04-11T14:34:29.034Z</time></trkpt><trkpt lat="44.5074248" lon="11.4125865"><ele>42.0</ele><time>2026-04-11T14:34:32.034Z</time></trkpt><trkpt lat="44.5074029" lon="11.4124888"><ele>42.0</ele><time>2026-04-11T14:34:35.036Z</time></trkpt><trkpt lat="44.5073772" lon="11.4123932"><ele>42.0</ele><time>2026-04-11T14:34:38.037Z</time></trkpt><trkpt lat="44.5073599" lon="11.4123065"><ele>42.0</ele><time>2026-04-11T14:34:41.037Z</time></trkpt><trkpt lat="44.5073475" lon="11.4122121"><ele>42.0</ele><time>2026-04-11T14:34:44.037Z</time></trkpt><trkpt lat="44.5073409" lon="11.4121216"><ele>41.857142857142854</ele><time>2026-04-11T14:34:47.037Z</time></trkpt><trkpt lat="44.5073358" lon="11.4120319"><ele>41.714285714285715</ele><time>2026-04-11T14:34:50.035Z</time></trkpt><trkpt lat="44.50733" lon="11.4119283"><ele>41.57142857142857</ele><time>2026-04-11T14:34:54.036Z</time></trkpt><trkpt lat="44.5073255" lon="11.4118139"><ele>41.42857142857143</ele><time>2026-04-11T14:34:58.034Z</time></trkpt><trkpt lat="44.5073204" lon="11.4117129"><ele>41.285714285714285</ele><time>2026-04-11T14:35:01.035Z</time></trkpt><trkpt lat="44.5073064" lon="11.4116124"><ele>41.14285714285714</ele><time>2026-04-11T14:35:04.034Z</time></trkpt><trkpt lat="44.507281" lon="11.4115213"><ele>41.0</ele><time>2026-04-11T14:35:07.035Z</time></trkpt><trkpt lat="44.5072533" lon="11.4114197"><ele>40.99999999999999</ele><time>2026-04-11T14:35:11.034Z</time></trkpt><trkpt lat="44.5072323" lon="11.4113358"><ele>41.0</ele><time>2026-04-11T14:35:14.035Z</time></trkpt><trkpt lat="44.507212" lon="11.4112512"><ele>41.0</ele><time>2026-04-11T14:35:17.036Z</time></trkpt><trkpt lat="44.5071932" lon="11.4111506"><ele>41.0</ele><time>2026-04-11T14:35:20.036Z</time></trkpt><trkpt lat="44.5071682" lon="11.4110676"><ele>41.0</ele><time>2026-04-11T14:35:23.035Z</time></trkpt><trkpt lat="44.5071513" lon="11.4109644"><ele>40.99999999999999</ele><time>2026-04-11T14:35:27.035Z</time></trkpt><trkpt lat="44.5071294" lon="11.4108565"><ele>41.0</ele><time>2026-04-11T14:35:31.037Z</time></trkpt><trkpt lat="44.5071114" lon="11.4107664"><ele>40.857142857142854</ele><time>2026-04-11T14:35:34.035Z</time></trkpt><trkpt lat="44.5070932" lon="11.4106677"><ele>40.714285714285715</ele><time>2026-04-11T14:35:37.036Z</time></trkpt><trkpt lat="44.5070704" lon="11.4105552"><ele>40.57142857142857</ele><time>2026-04-11T14:35:40.036Z</time></trkpt><trkpt lat="44.5070424" lon="11.4104566"><ele>40.42857142857143</ele><time>2026-04-11T14:35:43.036Z</time></trkpt><trkpt lat="44.5070192" lon="11.4103721"><ele>40.285714285714285</ele><time>2026-04-11T14:35:46.034Z</time></trkpt><trkpt lat="44.5070002" lon="11.4102837"><ele>40.14285714285714</ele><time>2026-04-11T14:35:49.037Z</time></trkpt><trkpt lat="44.5069673" lon="11.4102014"><ele>40.0</ele><time>2026-04-11T14:35:52.035Z</time></trkpt><trkpt lat="44.5069216" lon="11.4100955"><ele>40.285714285714285</ele><time>2026-04-11T14:35:56.036Z</time></trkpt><trkpt lat="44.5068831" lon="11.4099972"><ele>40.57142857142857</ele><time>2026-04-11T14:35:59.038Z</time></trkpt><trkpt lat="44.5068494" lon="11.4098897"><ele>40.85714285714286</ele><time>2026-04-11T14:36:03.035Z</time></trkpt><trkpt lat="44.5068275" lon="11.4098057"><ele>41.14285714285714</ele><time>2026-04-11T14:36:06.038Z</time></trkpt><trkpt lat="44.5067968" lon="11.4097208"><ele>41.42857142857143</ele><time>2026-04-11T14:36:09.037Z</time></trkpt><trkpt lat="44.5067634" lon="11.4096255"><ele>41.714285714285715</ele><time>2026-04-11T14:36:12.038Z</time></trkpt><trkpt lat="44.5067299" lon="11.4095444"><ele>42.0</ele><time>2026-04-11T14:36:15.037Z</time></trkpt><trkpt lat="44.5066879" lon="11.409463"><ele>42.0</ele><time>2026-04-11T14:36:18.037Z</time></trkpt><trkpt lat="44.506648" lon="11.4093772"><ele>42.0</ele><time>2026-04-11T14:36:21.037Z</time></trkpt><trkpt lat="44.5066091" lon="11.409305"><ele>42.0</ele><time>2026-04-11T14:36:24.037Z</time></trkpt><trkpt lat="44.5065705" lon="11.4092262"><ele>42.0</ele><time>2026-04-11T14:36:27.036Z</time></trkpt><trkpt lat="44.5065285" lon="11.4091405"><ele>42.0</ele><time>2026-04-11T14:36:30.036Z</time></trkpt><trkpt lat="44.5064796" lon="11.409063"><ele>42.0</ele><time>2026-04-11T14:36:33.038Z</time></trkpt><trkpt lat="44.5064513" lon="11.4089817"><ele>42.0</ele><time>2026-04-11T14:36:36.038Z</time></trkpt><trkpt lat="44.5064142" lon="11.4089076"><ele>42.0</ele><time>2026-04-11T14:36:39.036Z</time></trkpt><trkpt lat="44.506369" lon="11.4088457"><ele>42.0</ele><time>2026-04-11T14:36:42.036Z</time></trkpt><trkpt lat="44.5063171" lon="11.4087906"><ele>42.0</ele><time>2026-04-11T14:36:45.037Z</time></trkpt><trkpt lat="44.5062537" lon="11.4087306"><ele>42.0</ele><time>2026-04-11T14:36:49.037Z</time></trkpt><trkpt lat="44.5061861" lon="11.4086755"><ele>42.0</ele><time>2026-04-11T14:36:53.036Z</time></trkpt><trkpt lat="44.5061344" lon="11.4086244"><ele>42.0</ele><time>2026-04-11T14:36:56.036Z</time></trkpt><trkpt lat="44.5060695" lon="11.4085682"><ele>42.0</ele><time>2026-04-11T14:37:00.036Z</time></trkpt><trkpt lat="44.5060198" lon="11.4084959"><ele>42.0</ele><time>2026-04-11T14:37:03.037Z</time></trkpt><trkpt lat="44.5059915" lon="11.4084113"><ele>42.0</ele><time>2026-04-11T14:37:06.037Z</time></trkpt><trkpt lat="44.5059589" lon="11.4083335"><ele>42.0</ele><time>2026-04-11T14:37:09.037Z</time></trkpt><trkpt lat="44.5059241" lon="11.4082344"><ele>42.0</ele><time>2026-04-11T14:37:13.036Z</time></trkpt><trkpt lat="44.5058919" lon="11.4081407"><ele>42.0</ele><time>2026-04-11T14:37:17.035Z</time></trkpt><trkpt lat="44.5058833" lon="11.4080229"><ele>42.0</ele><time>2026-04-11T14:37:21.035Z</time></trkpt><trkpt lat="44.5058626" lon="11.4079214"><ele>42.0</ele><time>2026-04-11T14:37:24.036Z</time></trkpt><trkpt lat="44.5058488" lon="11.4078239"><ele>41.833333333333336</ele><time>2026-04-11T14:37:27.036Z</time></trkpt><trkpt lat="44.5058603" lon="11.4077249"><ele>41.666666666666664</ele><time>2026-04-11T14:37:30.039Z</time></trkpt><trkpt lat="44.5058621" lon="11.4076197"><ele>41.5</ele><time>2026-04-11T14:37:33.035Z</time></trkpt><trkpt lat="44.5058472" lon="11.4075171"><ele>41.33333333333333</ele><time>2026-04-11T14:37:36.036Z</time></trkpt><trkpt lat="44.5058264" lon="11.4074118"><ele>41.166666666666664</ele><time>2026-04-11T14:37:39.035Z</time></trkpt><trkpt lat="44.5057903" lon="11.4073048"><ele>41.0</ele><time>2026-04-11T14:37:42.034Z</time></trkpt><trkpt lat="44.5057558" lon="11.4072172"><ele>40.99999999999999</ele><time>2026-04-11T14:37:45.036Z</time></trkpt><trkpt lat="44.5057298" lon="11.4071172"><ele>41.0</ele><time>2026-04-11T14:37:49.034Z</time></trkpt><trkpt lat="44.505718" lon="11.4070281"><ele>41.0</ele><time>2026-04-11T14:37:52.035Z</time></trkpt><trkpt lat="44.5057049" lon="11.4069326"><ele>41.0</ele><time>2026-04-11T14:37:55.035Z</time></trkpt><trkpt lat="44.5056815" lon="11.4068298"><ele>41.0</ele><time>2026-04-11T14:37:59.037Z</time></trkpt><trkpt lat="44.5056659" lon="11.4067409"><ele>40.99999999999999</ele><time>2026-04-11T14:38:02.036Z</time></trkpt><trkpt lat="44.5056493" lon="11.4066534"><ele>41.0</ele><time>2026-04-11T14:38:05.036Z</time></trkpt><trkpt lat="44.5056321" lon="11.4065637"><ele>41.0</ele><time>2026-04-11T14:38:08.035Z</time></trkpt><trkpt lat="44.5056252" lon="11.4064581"><ele>41.0</ele><time>2026-04-11T14:38:11.036Z</time></trkpt><trkpt lat="44.5056054" lon="11.4063573"><ele>41.0</ele><time>2026-04-11T14:38:14.036Z</time></trkpt><trkpt lat="44.5055849" lon="11.406266"><ele>41.0</ele><time>2026-04-11T14:38:17.036Z</time></trkpt><trkpt lat="44.5055693" lon="11.4061675"><ele>41.0</ele><time>2026-04-11T14:38:20.035Z</time></trkpt><trkpt lat="44.5055546" lon="11.4060545"><ele>41.0</ele><time>2026-04-11T14:38:23.035Z</time></trkpt><trkpt lat="44.5055403" lon="11.405948"><ele>40.99999999999999</ele><time>2026-04-11T14:38:26.036Z</time></trkpt><trkpt lat="44.5055175" lon="11.4058504"><ele>41.0</ele><time>2026-04-11T14:38:29.034Z</time></trkpt><trkpt lat="44.5054944" lon="11.4057623"><ele>41.0</ele><time>2026-04-11T14:38:32.035Z</time></trkpt><trkpt lat="44.5054765" lon="11.4056582"><ele>41.0</ele><time>2026-04-11T14:38:35.035Z</time></trkpt><trkpt lat="44.5054631" lon="11.4055539"><ele>41.0</ele><time>2026-04-11T14:38:38.035Z</time></trkpt><trkpt lat="44.5054474" lon="11.4054547"><ele>40.99999999999999</ele><time>2026-04-11T14:38:41.035Z</time></trkpt><trkpt lat="44.5054312" lon="11.4053426"><ele>41.0</ele><time>2026-04-11T14:38:44.035Z</time></trkpt><trkpt lat="44.5054222" lon="11.4052517"><ele>41.166666666666664</ele><time>2026-04-11T14:38:47.036Z</time></trkpt><trkpt lat="44.5054001" lon="11.4051562"><ele>41.33333333333333</ele><time>2026-04-11T14:38:50.037Z</time></trkpt><trkpt lat="44.505393" lon="11.4050298"><ele>41.5</ele><time>2026-04-11T14:38:53.035Z</time></trkpt><trkpt lat="44.5053837" lon="11.4049248"><ele>41.666666666666664</ele><time>2026-04-11T14:38:56.033Z</time></trkpt><trkpt lat="44.5053741" lon="11.4048049"><ele>41.833333333333336</ele><time>2026-04-11T14:38:59.035Z</time></trkpt><trkpt lat="44.5053593" lon="11.4047028"><ele>42.0</ele><time>2026-04-11T14:39:02.033Z</time></trkpt><trkpt lat="44.5053369" lon="11.4045962"><ele>42.142857142857146</ele><time>2026-04-11T14:39:05.034Z</time></trkpt><trkpt lat="44.5053128" lon="11.4044899"><ele>42.285714285714285</ele><time>2026-04-11T14:39:08.037Z</time></trkpt><trkpt lat="44.5053015" lon="11.4043942"><ele>42.42857142857143</ele><time>2026-04-11T14:39:11.037Z</time></trkpt><trkpt lat="44.5052921" lon="11.4043043"><ele>42.57142857142857</ele><time>2026-04-11T14:39:14.039Z</time></trkpt><trkpt lat="44.5052755" lon="11.4042153"><ele>42.714285714285715</ele><time>2026-04-11T14:39:17.036Z</time></trkpt><trkpt lat="44.5052569" lon="11.4041299"><ele>42.85714285714286</ele><time>2026-04-11T14:39:20.037Z</time></trkpt><trkpt lat="44.5052339" lon="11.4040467"><ele>43.0</ele><time>2026-04-11T14:39:23.036Z</time></trkpt><trkpt lat="44.5052179" lon="11.4039333"><ele>43.00000000000001</ele><time>2026-04-11T14:39:27.037Z</time></trkpt><trkpt lat="44.5051974" lon="11.4038423"><ele>43.0</ele><time>2026-04-11T14:39:30.036Z</time></trkpt><trkpt lat="44.505183" lon="11.4037392"><ele>43.0</ele><time>2026-04-11T14:39:33.037Z</time></trkpt><trkpt lat="44.5051747" lon="11.4036429"><ele>43.0</ele><time>2026-04-11T14:39:36.037Z</time></trkpt><trkpt lat="44.5051639" lon="11.403528"><ele>43.0</ele><time>2026-04-11T14:39:40.036Z</time></trkpt><trkpt lat="44.5051429" lon="11.4034295"><ele>43.00000000000001</ele><time>2026-04-11T14:39:43.037Z</time></trkpt><trkpt lat="44.5051225" lon="11.4033268"><ele>43.0</ele><time>2026-04-11T14:39:46.035Z</time></trkpt><trkpt lat="44.505105" lon="11.4032264"><ele>42.85714285714286</ele><time>2026-04-11T14:39:49.037Z</time></trkpt><trkpt lat="44.5050901" lon="11.4031283"><ele>42.714285714285715</ele><time>2026-04-11T14:39:52.037Z</time></trkpt><trkpt lat="44.5050736" lon="11.4030261"><ele>42.57142857142857</ele><time>2026-04-11T14:39:55.037Z</time></trkpt><trkpt lat="44.5050579" lon="11.4029273"><ele>42.42857142857143</ele><time>2026-04-11T14:39:58.034Z</time></trkpt><trkpt lat="44.5050381" lon="11.4028308"><ele>42.285714285714285</ele><time>2026-04-11T14:40:01.035Z</time></trkpt><trkpt lat="44.5050274" lon="11.4027297"><ele>42.142857142857146</ele><time>2026-04-11T14:40:04.036Z</time></trkpt><trkpt lat="44.5050197" lon="11.4026191"><ele>42.0</ele><time>2026-04-11T14:40:07.037Z</time></trkpt><trkpt lat="44.5050066" lon="11.4025151"><ele>42.0</ele><time>2026-04-11T14:40:10.037Z</time></trkpt><trkpt lat="44.504995" lon="11.4024165"><ele>42.0</ele><time>2026-04-11T14:40:13.038Z</time></trkpt><trkpt lat="44.5049791" lon="11.4023249"><ele>42.0</ele><time>2026-04-11T14:40:16.035Z</time></trkpt><trkpt lat="44.5049731" lon="11.4022198"><ele>42.0</ele><time>2026-04-11T14:40:19.036Z</time></trkpt><trkpt lat="44.5049746" lon="11.4021189"><ele>42.0</ele><time>2026-04-11T14:40:22.036Z</time></trkpt><trkpt lat="44.5049727" lon="11.4020186"><ele>42.0</ele><time>2026-04-11T14:40:25.037Z</time></trkpt><trkpt lat="44.5049801" lon="11.4019226"><ele>42.0</ele><time>2026-04-11T14:40:28.038Z</time></trkpt><trkpt lat="44.5049938" lon="11.4018078"><ele>42.0</ele><time>2026-04-11T14:40:32.037Z</time></trkpt><trkpt lat="44.5049878" lon="11.4017086"><ele>42.0</ele><time>2026-04-11T14:40:35.038Z</time></trkpt><trkpt lat="44.5049814" lon="11.4015869"><ele>42.0</ele><time>2026-04-11T14:40:39.035Z</time></trkpt><trkpt lat="44.504964" lon="11.4014896"><ele>42.0</ele><time>2026-04-11T14:40:42.04Z</time></trkpt><trkpt lat="44.5049647" lon="11.4014012"><ele>42.0</ele><time>2026-04-11T14:40:45.036Z</time></trkpt><trkpt lat="44.5049722" lon="11.4012861"><ele>42.0</ele><time>2026-04-11T14:40:49.036Z</time></trkpt><trkpt lat="44.5049806" lon="11.401166"><ele>41.857142857142854</ele><time>2026-04-11T14:40:53.036Z</time></trkpt><trkpt lat="44.504977" lon="11.4010643"><ele>41.714285714285715</ele><time>2026-04-11T14:40:56.037Z</time></trkpt><trkpt lat="44.5049726" lon="11.4009685"><ele>41.57142857142857</ele><time>2026-04-11T14:40:59.034Z</time></trkpt><trkpt lat="44.504959" lon="11.4008725"><ele>41.42857142857143</ele><time>2026-04-11T14:41:02.036Z</time></trkpt><trkpt lat="44.5049584" lon="11.4007748"><ele>41.285714285714285</ele><time>2026-04-11T14:41:05.037Z</time></trkpt><trkpt lat="44.5049573" lon="11.4006772"><ele>41.14285714285714</ele><time>2026-04-11T14:41:08.036Z</time></trkpt><trkpt lat="44.5049575" lon="11.4005881"><ele>41.0</ele><time>2026-04-11T14:41:11.037Z</time></trkpt><trkpt lat="44.5049578" lon="11.4004679"><ele>41.0</ele><time>2026-04-11T14:41:15.035Z</time></trkpt><trkpt lat="44.5049715" lon="11.4003538"><ele>41.0</ele><time>2026-04-11T14:41:18.037Z</time></trkpt><trkpt lat="44.5049966" lon="11.4002387"><ele>41.0</ele><time>2026-04-11T14:41:21.037Z</time></trkpt><trkpt lat="44.5050025" lon="11.4001391"><ele>41.0</ele><time>2026-04-11T14:41:24.037Z</time></trkpt><trkpt lat="44.5050027" lon="11.4000448"><ele>41.0</ele><time>2026-04-11T14:41:27.038Z</time></trkpt><trkpt lat="44.5050102" lon="11.3999263"><ele>41.0</ele><time>2026-04-11T14:41:31.036Z</time></trkpt><trkpt lat="44.505022" lon="11.3998246"><ele>40.99999999999999</ele><time>2026-04-11T14:41:34.034Z</time></trkpt><trkpt lat="44.5050228" lon="11.3997309"><ele>41.0</ele><time>2026-04-11T14:41:37.037Z</time></trkpt><trkpt lat="44.5050125" lon="11.3996312"><ele>41.0</ele><time>2026-04-11T14:41:40.036Z</time></trkpt><trkpt lat="44.5049967" lon="11.399532"><ele>41.0</ele><time>2026-04-11T14:41:43.036Z</time></trkpt><trkpt lat="44.5049981" lon="11.3994316"><ele>41.0</ele><time>2026-04-11T14:41:46.036Z</time></trkpt><trkpt lat="44.5049888" lon="11.3993129"><ele>40.99999999999999</ele><time>2026-04-11T14:41:49.038Z</time></trkpt><trkpt lat="44.5049869" lon="11.3992086"><ele>41.0</ele><time>2026-04-11T14:41:52.036Z</time></trkpt><trkpt lat="44.5049827" lon="11.3991176"><ele>41.0</ele><time>2026-04-11T14:41:55.038Z</time></trkpt><trkpt lat="44.504982" lon="11.3990018"><ele>41.0</ele><time>2026-04-11T14:41:59.037Z</time></trkpt><trkpt lat="44.5049845" lon="11.3988963"><ele>41.0</ele><time>2026-04-11T14:42:02.037Z</time></trkpt><trkpt lat="44.5049923" lon="11.3987797"><ele>41.0</ele><time>2026-04-11T14:42:05.036Z</time></trkpt><trkpt lat="44.5049909" lon="11.3986734"><ele>41.0</ele><time>2026-04-11T14:42:08.039Z</time></trkpt><trkpt lat="44.5049918" lon="11.3985612"><ele>41.0</ele><time>2026-04-11T14:42:11.038Z</time></trkpt><trkpt lat="44.504993" lon="11.3984535"><ele>41.0</ele><time>2026-04-11T14:42:14.035Z</time></trkpt><trkpt lat="44.5049902" lon="11.3983631"><ele>41.0</ele><time>2026-04-11T14:42:17.036Z</time></trkpt><trkpt lat="44.5049783" lon="11.3982666"><ele>41.0</ele><time>2026-04-11T14:42:21.037Z</time></trkpt><trkpt lat="44.5049674" lon="11.3981477"><ele>41.0</ele><time>2026-04-11T14:42:25.035Z</time></trkpt><trkpt lat="44.5049678" lon="11.3980537"><ele>41.0</ele><time>2026-04-11T14:42:28.036Z</time></trkpt><trkpt lat="44.5049729" lon="11.3979411"><ele>41.0</ele><time>2026-04-11T14:42:32.035Z</time></trkpt><trkpt lat="44.5049717" lon="11.3978207"><ele>41.285714285714285</ele><time>2026-04-11T14:42:36.037Z</time></trkpt><trkpt lat="44.5049943" lon="11.3977109"><ele>41.57142857142857</ele><time>2026-04-11T14:42:39.035Z</time></trkpt><trkpt lat="44.5050322" lon="11.3976193"><ele>41.85714285714286</ele><time>2026-04-11T14:42:42.037Z</time></trkpt><trkpt lat="44.5050818" lon="11.3975426"><ele>42.14285714285714</ele><time>2026-04-11T14:42:45.035Z</time></trkpt><trkpt lat="44.5051159" lon="11.3974541"><ele>42.42857142857143</ele><time>2026-04-11T14:42:48.036Z</time></trkpt><trkpt lat="44.5051609" lon="11.3973791"><ele>42.714285714285715</ele><time>2026-04-11T14:42:51.036Z</time></trkpt><trkpt lat="44.5052247" lon="11.3973324"><ele>43.0</ele><time>2026-04-11T14:42:54.037Z</time></trkpt><trkpt lat="44.5052909" lon="11.3973065"><ele>43.00000000000001</ele><time>2026-04-11T14:42:57.037Z</time></trkpt><trkpt lat="44.5053574" lon="11.3972894"><ele>43.0</ele><time>2026-04-11T14:43:00.036Z</time></trkpt><trkpt lat="44.5054228" lon="11.3972691"><ele>43.0</ele><time>2026-04-11T14:43:03.036Z</time></trkpt><trkpt lat="44.5054887" lon="11.3972788"><ele>43.0</ele><time>2026-04-11T14:43:06.035Z</time></trkpt><trkpt lat="44.50556" lon="11.3972829"><ele>43.0</ele><time>2026-04-11T14:43:10.036Z</time></trkpt><trkpt lat="44.5055949" lon="11.3971869"><ele>43.00000000000001</ele><time>2026-04-11T14:43:16.038Z</time></trkpt><trkpt lat="44.5055629" lon="11.3971065"><ele>43.0</ele><time>2026-04-11T14:43:18.036Z</time></trkpt><trkpt lat="44.50549" lon="11.3970497"><ele>42.85714285714286</ele><time>2026-04-11T14:43:21.037Z</time></trkpt><trkpt lat="44.5054173" lon="11.3970529"><ele>42.714285714285715</ele><time>2026-04-11T14:43:24.037Z</time></trkpt><trkpt lat="44.5053441" lon="11.397066"><ele>42.57142857142857</ele><time>2026-04-11T14:43:27.037Z</time></trkpt><trkpt lat="44.5052745" lon="11.3970735"><ele>42.42857142857143</ele><time>2026-04-11T14:43:30.033Z</time></trkpt><trkpt lat="44.5052052" lon="11.3970535"><ele>42.285714285714285</ele><time>2026-04-11T14:43:33.032Z</time></trkpt><trkpt lat="44.5051436" lon="11.3969944"><ele>42.142857142857146</ele><time>2026-04-11T14:43:36.033Z</time></trkpt><trkpt lat="44.5050944" lon="11.3969227"><ele>42.0</ele><time>2026-04-11T14:43:39.035Z</time></trkpt><trkpt lat="44.5050474" lon="11.3968569"><ele>42.0</ele><time>2026-04-11T14:43:42.037Z</time></trkpt><trkpt lat="44.5050281" lon="11.3967545"><ele>42.0</ele><time>2026-04-11T14:43:46.036Z</time></trkpt><trkpt lat="44.505036" lon="11.3966615"><ele>42.0</ele><time>2026-04-11T14:43:49.037Z</time></trkpt><trkpt lat="44.5050514" lon="11.3965732"><ele>42.0</ele><time>2026-04-11T14:43:52.038Z</time></trkpt><trkpt lat="44.505061" lon="11.3964639"><ele>42.0</ele><time>2026-04-11T14:43:56.037Z</time></trkpt><trkpt lat="44.505067" lon="11.3963757"><ele>42.0</ele><time>2026-04-11T14:43:59.037Z</time></trkpt><trkpt lat="44.5050668" lon="11.3962808"><ele>42.0</ele><time>2026-04-11T14:44:02.036Z</time></trkpt><trkpt lat="44.5050684" lon="11.3961846"><ele>41.833333333333336</ele><time>2026-04-11T14:44:05.036Z</time></trkpt><trkpt lat="44.5050702" lon="11.3960687"><ele>41.666666666666664</ele><time>2026-04-11T14:44:09.036Z</time></trkpt><trkpt lat="44.5050681" lon="11.3959604"><ele>41.5</ele><time>2026-04-11T14:44:13.036Z</time></trkpt><trkpt lat="44.5050783" lon="11.3958679"><ele>41.33333333333333</ele><time>2026-04-11T14:44:17.036Z</time></trkpt><trkpt lat="44.5050749" lon="11.395763"><ele>41.166666666666664</ele><time>2026-04-11T14:44:21.035Z</time></trkpt><trkpt lat="44.5050797" lon="11.395651"><ele>41.0</ele><time>2026-04-11T14:44:25.036Z</time></trkpt><trkpt lat="44.5050737" lon="11.395542"><ele>40.99999999999999</ele><time>2026-04-11T14:44:29.036Z</time></trkpt><trkpt lat="44.5050687" lon="11.3954318"><ele>41.0</ele><time>2026-04-11T14:44:33.037Z</time></trkpt><trkpt lat="44.5050583" lon="11.3953156"><ele>41.0</ele><time>2026-04-11T14:44:37.036Z</time></trkpt><trkpt lat="44.5050541" lon="11.3952216"><ele>41.0</ele><time>2026-04-11T14:44:40.034Z</time></trkpt><trkpt lat="44.5050414" lon="11.3951319"><ele>41.0</ele><time>2026-04-11T14:44:43.036Z</time></trkpt><trkpt lat="44.5050308" lon="11.3950425"><ele>40.99999999999999</ele><time>2026-04-11T14:44:46.036Z</time></trkpt><trkpt lat="44.5050128" lon="11.3949339"><ele>41.0</ele><time>2026-04-11T14:44:50.038Z</time></trkpt><trkpt lat="44.5050133" lon="11.3948234"><ele>41.0</ele><time>2026-04-11T14:44:54.035Z</time></trkpt><trkpt lat="44.505015" lon="11.3947086"><ele>41.0</ele><time>2026-04-11T14:44:58.036Z</time></trkpt><trkpt lat="44.5050094" lon="11.3945913"><ele>41.0</ele><time>2026-04-11T14:45:02.035Z</time></trkpt><trkpt lat="44.5049787" lon="11.394493"><ele>41.0</ele><time>2026-04-11T14:45:06.037Z</time></trkpt><trkpt lat="44.5049329" lon="11.3944185"><ele>41.0</ele><time>2026-04-11T14:45:10.035Z</time></trkpt><trkpt lat="44.5048957" lon="11.3943224"><ele>41.0</ele><time>2026-04-11T14:45:14.036Z</time></trkpt><trkpt lat="44.5048655" lon="11.3942164"><ele>41.0</ele><time>2026-04-11T14:45:18.036Z</time></trkpt><trkpt lat="44.5048523" lon="11.3941254"><ele>41.0</ele><time>2026-04-11T14:45:21.036Z</time></trkpt><trkpt lat="44.5048373" lon="11.3940138"><ele>41.0</ele><time>2026-04-11T14:45:25.036Z</time></trkpt><trkpt lat="44.5048275" lon="11.3938996"><ele>41.0</ele><time>2026-04-11T14:45:29.038Z</time></trkpt><trkpt lat="44.5048154" lon="11.3938109"><ele>41.0</ele><time>2026-04-11T14:45:32.036Z</time></trkpt><trkpt lat="44.5047946" lon="11.3936995"><ele>41.0</ele><time>2026-04-11T14:45:36.037Z</time></trkpt><trkpt lat="44.504784" lon="11.3935863"><ele>41.14285714285714</ele><time>2026-04-11T14:45:40.037Z</time></trkpt><trkpt lat="44.5047652" lon="11.3934835"><ele>41.285714285714285</ele><time>2026-04-11T14:45:44.037Z</time></trkpt><trkpt lat="44.5047491" lon="11.393395"><ele>41.42857142857143</ele><time>2026-04-11T14:45:47.037Z</time></trkpt><trkpt lat="44.5047313" lon="11.3932989"><ele>41.57142857142857</ele><time>2026-04-11T14:45:50.037Z</time></trkpt><trkpt lat="44.5047208" lon="11.3932093"><ele>41.714285714285715</ele><time>2026-04-11T14:45:53.039Z</time></trkpt><trkpt lat="44.5047057" lon="11.3930935"><ele>41.857142857142854</ele><time>2026-04-11T14:45:57.039Z</time></trkpt><trkpt lat="44.5046972" lon="11.3930039"><ele>42.0</ele><time>2026-04-11T14:46:00.037Z</time></trkpt><trkpt lat="44.5046876" lon="11.3929075"><ele>42.0</ele><time>2026-04-11T14:46:03.037Z</time></trkpt><trkpt lat="44.5046744" lon="11.3928115"><ele>42.0</ele><time>2026-04-11T14:46:06.039Z</time></trkpt><trkpt lat="44.5046628" lon="11.3927022"><ele>42.0</ele><time>2026-04-11T14:46:10.036Z</time></trkpt><trkpt lat="44.5046498" lon="11.3926097"><ele>42.0</ele><time>2026-04-11T14:46:13.037Z</time></trkpt><trkpt lat="44.5046342" lon="11.3924987"><ele>42.0</ele><time>2026-04-11T14:46:17.037Z</time></trkpt><trkpt lat="44.5046218" lon="11.3923842"><ele>42.0</ele><time>2026-04-11T14:46:21.038Z</time></trkpt><trkpt lat="44.5046168" lon="11.3922939"><ele>42.0</ele><time>2026-04-11T14:46:24.038Z</time></trkpt><trkpt lat="44.5046089" lon="11.3921963"><ele>42.0</ele><time>2026-04-11T14:46:27.036Z</time></trkpt><trkpt lat="44.5045961" lon="11.3921068"><ele>42.0</ele><time>2026-04-11T14:46:30.037Z</time></trkpt><trkpt lat="44.5045793" lon="11.3920102"><ele>42.0</ele><time>2026-04-11T14:46:33.036Z</time></trkpt><trkpt lat="44.5045699" lon="11.3918947"><ele>42.0</ele><time>2026-04-11T14:46:37.037Z</time></trkpt><trkpt lat="44.5045546" lon="11.3918022"><ele>42.0</ele><time>2026-04-11T14:46:40.036Z</time></trkpt><trkpt lat="44.5045479" lon="11.3916957"><ele>42.0</ele><time>2026-04-11T14:46:44.037Z</time></trkpt><trkpt lat="44.5045512" lon="11.3916042"><ele>42.0</ele><time>2026-04-11T14:46:48.037Z</time></trkpt><trkpt lat="44.5045316" lon="11.391509"><ele>42.285714285714285</ele><time>2026-04-11T14:46:52.036Z</time></trkpt><trkpt lat="44.5045244" lon="11.391416"><ele>42.57142857142857</ele><time>2026-04-11T14:46:56.036Z</time></trkpt><trkpt lat="44.5045159" lon="11.3913181"><ele>42.85714285714286</ele><time>2026-04-11T14:47:00.037Z</time></trkpt><trkpt lat="44.5045104" lon="11.3912133"><ele>43.14285714285714</ele><time>2026-04-11T14:47:03.036Z</time></trkpt><trkpt lat="44.5044918" lon="11.3911188"><ele>43.42857142857143</ele><time>2026-04-11T14:47:06.038Z</time></trkpt><trkpt lat="44.5044798" lon="11.3910093"><ele>43.714285714285715</ele><time>2026-04-11T14:47:10.036Z</time></trkpt><trkpt lat="44.5044616" lon="11.3909022"><ele>44.0</ele><time>2026-04-11T14:47:14.036Z</time></trkpt><trkpt lat="44.504443" lon="11.3908071"><ele>44.0</ele><time>2026-04-11T14:47:18.036Z</time></trkpt><trkpt lat="44.5044216" lon="11.390701"><ele>44.0</ele><time>2026-04-11T14:47:23.035Z</time></trkpt><trkpt lat="44.5043989" lon="11.3905982"><ele>44.0</ele><time>2026-04-11T14:47:27.037Z</time></trkpt><trkpt lat="44.5043817" lon="11.3904901"><ele>44.0</ele><time>2026-04-11T14:47:31.036Z</time></trkpt><trkpt lat="44.5043717" lon="11.3903871"><ele>44.0</ele><time>2026-04-11T14:47:34.036Z</time></trkpt><trkpt lat="44.5043609" lon="11.3902936"><ele>44.0</ele><time>2026-04-11T14:47:37.036Z</time></trkpt><trkpt lat="44.5043459" lon="11.3901899"><ele>44.0</ele><time>2026-04-11T14:47:41.036Z</time></trkpt><trkpt lat="44.5043228" lon="11.3900841"><ele>44.0</ele><time>2026-04-11T14:47:45.036Z</time></trkpt><trkpt lat="44.5043036" lon="11.3899821"><ele>44.0</ele><time>2026-04-11T14:47:49.037Z</time></trkpt><trkpt lat="44.5042903" lon="11.3898751"><ele>44.0</ele><time>2026-04-11T14:47:53.036Z</time></trkpt><trkpt lat="44.5042877" lon="11.389777"><ele>44.0</ele><time>2026-04-11T14:47:57.036Z</time></trkpt><trkpt lat="44.5042808" lon="11.389677"><ele>44.0</ele><time>2026-04-11T14:48:01.034Z</time></trkpt><trkpt lat="44.5042894" lon="11.3895554"><ele>44.142857142857146</ele><time>2026-04-11T14:48:05.035Z</time></trkpt><trkpt lat="44.5043219" lon="11.3894525"><ele>44.285714285714285</ele><time>2026-04-11T14:48:08.034Z</time></trkpt><trkpt lat="44.5043739" lon="11.3893749"><ele>44.42857142857143</ele><time>2026-04-11T14:48:11.035Z</time></trkpt><trkpt lat="44.5044267" lon="11.389296"><ele>44.57142857142857</ele><time>2026-04-11T14:48:15.036Z</time></trkpt><trkpt lat="44.5044695" lon="11.3892194"><ele>44.714285714285715</ele><time>2026-04-11T14:48:20.036Z</time></trkpt><trkpt lat="44.5045146" lon="11.3891566"><ele>44.857142857142854</ele><time>2026-04-11T14:48:23.036Z</time></trkpt><trkpt lat="44.5045604" lon="11.3890958"><ele>45.0</ele><time>2026-04-11T14:48:27.036Z</time></trkpt><trkpt lat="44.5045757" lon="11.3890065"><ele>45.0</ele><time>2026-04-11T14:48:32.037Z</time></trkpt><trkpt lat="44.504525" lon="11.3889225"><ele>45.0</ele><time>2026-04-11T14:48:35.036Z</time></trkpt><trkpt lat="44.5044578" lon="11.3888926"><ele>45.0</ele><time>2026-04-11T14:48:38.036Z</time></trkpt><trkpt lat="44.5044008" lon="11.3888513"><ele>45.0</ele><time>2026-04-11T14:48:41.036Z</time></trkpt><trkpt lat="44.5043468" lon="11.3887868"><ele>45.0</ele><time>2026-04-11T14:48:44.035Z</time></trkpt><trkpt lat="44.5043035" lon="11.388708"><ele>45.0</ele><time>2026-04-11T14:48:47.036Z</time></trkpt><trkpt lat="44.5042686" lon="11.3886011"><ele>45.0</ele><time>2026-04-11T14:48:51.036Z</time></trkpt><trkpt lat="44.5042459" lon="11.3885139"><ele>45.0</ele><time>2026-04-11T14:48:54.036Z</time></trkpt><trkpt lat="44.5042298" lon="11.3884256"><ele>45.0</ele><time>2026-04-11T14:48:57.037Z</time></trkpt><trkpt lat="44.5042221" lon="11.3883108"><ele>45.0</ele><time>2026-04-11T14:49:01.037Z</time></trkpt><trkpt lat="44.5042171" lon="11.3881947"><ele>45.0</ele><time>2026-04-11T14:49:05.036Z</time></trkpt><trkpt lat="44.5042119" lon="11.3880995"><ele>45.0</ele><time>2026-04-11T14:49:08.037Z</time></trkpt><trkpt lat="44.504199" lon="11.3880029"><ele>45.0</ele><time>2026-04-11T14:49:11.038Z</time></trkpt><trkpt lat="44.5041893" lon="11.3879073"><ele>45.0</ele><time>2026-04-11T14:49:14.037Z</time></trkpt><trkpt lat="44.5041624" lon="11.3878137"><ele>45.333333333333336</ele><time>2026-04-11T14:49:17.036Z</time></trkpt><trkpt lat="44.5041504" lon="11.387717"><ele>45.666666666666664</ele><time>2026-04-11T14:49:20.037Z</time></trkpt><trkpt lat="44.5041377" lon="11.387606"><ele>46.0</ele><time>2026-04-11T14:49:24.036Z</time></trkpt><trkpt lat="44.5041295" lon="11.3875006"><ele>46.33333333333333</ele><time>2026-04-11T14:49:28.037Z</time></trkpt><trkpt lat="44.5041359" lon="11.3873885"><ele>46.666666666666664</ele><time>2026-04-11T14:49:32.038Z</time></trkpt><trkpt lat="44.5041311" lon="11.387285"><ele>47.0</ele><time>2026-04-11T14:49:36.038Z</time></trkpt><trkpt lat="44.5041135" lon="11.3871786"><ele>46.714285714285715</ele><time>2026-04-11T14:49:40.037Z</time></trkpt><trkpt lat="44.5040939" lon="11.3870816"><ele>46.42857142857143</ele><time>2026-04-11T14:49:43.037Z</time></trkpt><trkpt lat="44.5040791" lon="11.3869759"><ele>46.14285714285714</ele><time>2026-04-11T14:49:47.037Z</time></trkpt><trkpt lat="44.5040733" lon="11.3868767"><ele>45.85714285714286</ele><time>2026-04-11T14:49:50.037Z</time></trkpt><trkpt lat="44.5040618" lon="11.3867542"><ele>45.57142857142858</ele><time>2026-04-11T14:49:53.037Z</time></trkpt><trkpt lat="44.5040618" lon="11.3866556"><ele>45.285714285714285</ele><time>2026-04-11T14:49:56.038Z</time></trkpt><trkpt lat="44.5040699" lon="11.386561"><ele>45.0</ele><time>2026-04-11T14:50:02.037Z</time></trkpt><trkpt lat="44.5040357" lon="11.3864695"><ele>45.0</ele><time>2026-04-11T14:50:07.037Z</time></trkpt><trkpt lat="44.5040004" lon="11.386389"><ele>45.0</ele><time>2026-04-11T14:50:10.035Z</time></trkpt><trkpt lat="44.5039705" lon="11.3862929"><ele>45.0</ele><time>2026-04-11T14:50:13.037Z</time></trkpt><trkpt lat="44.5039627" lon="11.3861764"><ele>45.0</ele><time>2026-04-11T14:50:17.038Z</time></trkpt><trkpt lat="44.5039491" lon="11.3860626"><ele>45.0</ele><time>2026-04-11T14:50:21.039Z</time></trkpt><trkpt lat="44.5039438" lon="11.3859691"><ele>45.0</ele><time>2026-04-11T14:50:24.039Z</time></trkpt><trkpt lat="44.5039254" lon="11.3858803"><ele>45.0</ele><time>2026-04-11T14:50:27.036Z</time></trkpt><trkpt lat="44.5039114" lon="11.3857817"><ele>45.0</ele><time>2026-04-11T14:50:30.038Z</time></trkpt><trkpt lat="44.5039155" lon="11.3856767"><ele>45.0</ele><time>2026-04-11T14:50:33.038Z</time></trkpt><trkpt lat="44.5038998" lon="11.3855789"><ele>45.0</ele><time>2026-04-11T14:50:36.038Z</time></trkpt><trkpt lat="44.5038777" lon="11.3854816"><ele>45.0</ele><time>2026-04-11T14:50:40.038Z</time></trkpt><trkpt lat="44.5038419" lon="11.3854069"><ele>45.0</ele><time>2026-04-11T14:50:44.036Z</time></trkpt><trkpt lat="44.5038094" lon="11.385327"><ele>45.0</ele><time>2026-04-11T14:50:49.038Z</time></trkpt><trkpt lat="44.5037524" lon="11.3852884"><ele>45.0</ele><time>2026-04-11T14:50:52.038Z</time></trkpt><trkpt lat="44.5037024" lon="11.3852052"><ele>45.0</ele><time>2026-04-11T14:50:55.036Z</time></trkpt><trkpt lat="44.5036776" lon="11.3851165"><ele>45.0</ele><time>2026-04-11T14:50:58.037Z</time></trkpt><trkpt lat="44.503645" lon="11.3850292"><ele>45.0</ele><time>2026-04-11T14:51:01.038Z</time></trkpt><trkpt lat="44.5036071" lon="11.3849377"><ele>45.0</ele><time>2026-04-11T14:51:04.036Z</time></trkpt><trkpt lat="44.5035655" lon="11.384845"><ele>45.0</ele><time>2026-04-11T14:51:07.038Z</time></trkpt><trkpt lat="44.5035297" lon="11.3847647"><ele>45.0</ele><time>2026-04-11T14:51:10.036Z</time></trkpt><trkpt lat="44.5034909" lon="11.3846861"><ele>45.0</ele><time>2026-04-11T14:51:13.036Z</time></trkpt><trkpt lat="44.5034591" lon="11.384609"><ele>45.285714285714285</ele><time>2026-04-11T14:51:16.036Z</time></trkpt><trkpt lat="44.5034313" lon="11.3845244"><ele>45.57142857142858</ele><time>2026-04-11T14:51:19.037Z</time></trkpt><trkpt lat="44.5033874" lon="11.3844452"><ele>45.85714285714286</ele><time>2026-04-11T14:51:22.036Z</time></trkpt><trkpt lat="44.5033431" lon="11.3843707"><ele>46.14285714285714</ele><time>2026-04-11T14:51:25.038Z</time></trkpt><trkpt lat="44.5033056" lon="11.3842895"><ele>46.42857142857143</ele><time>2026-04-11T14:51:28.038Z</time></trkpt><trkpt lat="44.5032689" lon="11.3842031"><ele>46.714285714285715</ele><time>2026-04-11T14:51:31.038Z</time></trkpt><trkpt lat="44.5032351" lon="11.3841225"><ele>47.0</ele><time>2026-04-11T14:51:34.037Z</time></trkpt><trkpt lat="44.5031862" lon="11.3840259"><ele>47.0</ele><time>2026-04-11T14:51:38.036Z</time></trkpt><trkpt lat="44.503141" lon="11.3839595"><ele>47.0</ele><time>2026-04-11T14:51:41.037Z</time></trkpt><trkpt lat="44.5030755" lon="11.3839004"><ele>47.0</ele><time>2026-04-11T14:51:44.038Z</time></trkpt><trkpt lat="44.5030239" lon="11.3838484"><ele>47.0</ele><time>2026-04-11T14:51:47.038Z</time></trkpt><trkpt lat="44.5029914" lon="11.3837705"><ele>47.0</ele><time>2026-04-11T14:51:50.037Z</time></trkpt><trkpt lat="44.5029518" lon="11.3836936"><ele>47.0</ele><time>2026-04-11T14:51:53.038Z</time></trkpt><trkpt lat="44.5029135" lon="11.3836129"><ele>47.0</ele><time>2026-04-11T14:51:56.036Z</time></trkpt><trkpt lat="44.5028723" lon="11.3835337"><ele>47.166666666666664</ele><time>2026-04-11T14:51:59.037Z</time></trkpt><trkpt lat="44.502828" lon="11.3834352"><ele>47.33333333333333</ele><time>2026-04-11T14:52:03.037Z</time></trkpt><trkpt lat="44.5027914" lon="11.3833309"><ele>47.5</ele><time>2026-04-11T14:52:07.038Z</time></trkpt><trkpt lat="44.5027479" lon="11.3832304"><ele>47.666666666666664</ele><time>2026-04-11T14:52:11.037Z</time></trkpt><trkpt lat="44.5027049" lon="11.3831339"><ele>47.833333333333336</ele><time>2026-04-11T14:52:15.038Z</time></trkpt><trkpt lat="44.5026744" lon="11.3830565"><ele>48.0</ele><time>2026-04-11T14:52:18.035Z</time></trkpt><trkpt lat="44.5026419" lon="11.3829584"><ele>47.99999999999999</ele><time>2026-04-11T14:52:22.036Z</time></trkpt><trkpt lat="44.5026049" lon="11.3828649"><ele>48.0</ele><time>2026-04-11T14:52:26.035Z</time></trkpt><trkpt lat="44.5025572" lon="11.3827726"><ele>48.0</ele><time>2026-04-11T14:52:30.039Z</time></trkpt><trkpt lat="44.502526" lon="11.3826786"><ele>48.0</ele><time>2026-04-11T14:52:34.036Z</time></trkpt><trkpt lat="44.5024821" lon="11.3825925"><ele>48.0</ele><time>2026-04-11T14:52:38.036Z</time></trkpt><trkpt lat="44.5024533" lon="11.382498"><ele>47.99999999999999</ele><time>2026-04-11T14:52:42.037Z</time></trkpt><trkpt lat="44.5024225" lon="11.3824177"><ele>48.0</ele><time>2026-04-11T14:52:46.035Z</time></trkpt><trkpt lat="44.5023899" lon="11.3823187"><ele>47.99999999999999</ele><time>2026-04-11T14:52:50.038Z</time></trkpt><trkpt lat="44.5023575" lon="11.3822425"><ele>48.0</ele><time>2026-04-11T14:52:53.038Z</time></trkpt><trkpt lat="44.5023083" lon="11.382148"><ele>48.0</ele><time>2026-04-11T14:52:57.039Z</time></trkpt><trkpt lat="44.5022635" lon="11.3820708"><ele>48.0</ele><time>2026-04-11T14:53:00.035Z</time></trkpt><trkpt lat="44.5022103" lon="11.3819955"><ele>48.0</ele><time>2026-04-11T14:53:03.037Z</time></trkpt><trkpt lat="44.5021679" lon="11.3819107"><ele>47.99999999999999</ele><time>2026-04-11T14:53:06.037Z</time></trkpt><trkpt lat="44.5021188" lon="11.3818463"><ele>48.0</ele><time>2026-04-11T14:53:09.037Z</time></trkpt><trkpt lat="44.5020629" lon="11.381774"><ele>48.14285714285714</ele><time>2026-04-11T14:53:13.039Z</time></trkpt><trkpt lat="44.5020155" lon="11.3816964"><ele>48.285714285714285</ele><time>2026-04-11T14:53:17.038Z</time></trkpt><trkpt lat="44.5019633" lon="11.3816399"><ele>48.42857142857143</ele><time>2026-04-11T14:53:20.039Z</time></trkpt><trkpt lat="44.501913" lon="11.38158"><ele>48.57142857142857</ele><time>2026-04-11T14:53:23.036Z</time></trkpt><trkpt lat="44.5018677" lon="11.3815095"><ele>48.714285714285715</ele><time>2026-04-11T14:53:26.037Z</time></trkpt><trkpt lat="44.5018156" lon="11.3814199"><ele>48.857142857142854</ele><time>2026-04-11T14:53:30.038Z</time></trkpt><trkpt lat="44.5017768" lon="11.3813475"><ele>49.0</ele><time>2026-04-11T14:53:33.037Z</time></trkpt><trkpt lat="44.5017389" lon="11.3812646"><ele>49.0</ele><time>2026-04-11T14:53:36.037Z</time></trkpt><trkpt lat="44.5017017" lon="11.3811886"><ele>49.0</ele><time>2026-04-11T14:53:39.035Z</time></trkpt><trkpt lat="44.5016657" lon="11.381089"><ele>49.0</ele><time>2026-04-11T14:53:43.037Z</time></trkpt><trkpt lat="44.5016437" lon="11.3809903"><ele>49.0</ele><time>2026-04-11T14:53:47.037Z</time></trkpt><trkpt lat="44.5016266" lon="11.3808927"><ele>49.0</ele><time>2026-04-11T14:53:51.038Z</time></trkpt><trkpt lat="44.5016004" lon="11.3807949"><ele>49.0</ele><time>2026-04-11T14:53:55.037Z</time></trkpt><trkpt lat="44.5015685" lon="11.3806935"><ele>49.0</ele><time>2026-04-11T14:53:59.039Z</time></trkpt><trkpt lat="44.5015329" lon="11.3806022"><ele>49.142857142857146</ele><time>2026-04-11T14:54:03.036Z</time></trkpt><trkpt lat="44.5014916" lon="11.3805047"><ele>49.285714285714285</ele><time>2026-04-11T14:54:07.036Z</time></trkpt><trkpt lat="44.5014515" lon="11.3804129"><ele>49.42857142857143</ele><time>2026-04-11T14:54:11.038Z</time></trkpt><trkpt lat="44.5014252" lon="11.3803247"><ele>49.57142857142857</ele><time>2026-04-11T14:54:15.037Z</time></trkpt><trkpt lat="44.5013937" lon="11.380247"><ele>49.714285714285715</ele><time>2026-04-11T14:54:19.036Z</time></trkpt><trkpt lat="44.5013634" lon="11.3801464"><ele>49.85714285714286</ele><time>2026-04-11T14:54:24.037Z</time></trkpt><trkpt lat="44.5013555" lon="11.3800532"><ele>50.0</ele><time>2026-04-11T14:54:28.037Z</time></trkpt><trkpt lat="44.5013407" lon="11.3799646"><ele>50.00000000000001</ele><time>2026-04-11T14:54:32.038Z</time></trkpt><trkpt lat="44.5013026" lon="11.3798755"><ele>50.0</ele><time>2026-04-11T14:54:36.035Z</time></trkpt><trkpt lat="44.5012641" lon="11.3797842"><ele>50.0</ele><time>2026-04-11T14:54:40.035Z</time></trkpt><trkpt lat="44.5012181" lon="11.3796977"><ele>50.0</ele><time>2026-04-11T14:54:44.037Z</time></trkpt><trkpt lat="44.5011791" lon="11.3796137"><ele>50.0</ele><time>2026-04-11T14:54:48.037Z</time></trkpt><trkpt lat="44.5011429" lon="11.3795329"><ele>50.00000000000001</ele><time>2026-04-11T14:54:52.037Z</time></trkpt><trkpt lat="44.5011012" lon="11.3794325"><ele>50.0</ele><time>2026-04-11T14:54:56.036Z</time></trkpt><trkpt lat="44.5010708" lon="11.3793374"><ele>49.28571428571429</ele><time>2026-04-11T14:55:00.035Z</time></trkpt><trkpt lat="44.5010322" lon="11.3792448"><ele>48.57142857142857</ele><time>2026-04-11T14:55:04.034Z</time></trkpt><trkpt lat="44.5009885" lon="11.3791632"><ele>47.85714285714286</ele><time>2026-04-11T14:55:08.035Z</time></trkpt><trkpt lat="44.5009288" lon="11.3790814"><ele>47.142857142857146</ele><time>2026-04-11T14:55:12.037Z</time></trkpt><trkpt lat="44.5008844" lon="11.379014"><ele>46.42857142857143</ele><time>2026-04-11T14:55:15.037Z</time></trkpt><trkpt lat="44.5008405" lon="11.37894"><ele>45.714285714285715</ele><time>2026-04-11T14:55:19.036Z</time></trkpt><trkpt lat="44.5008417" lon="11.3788463"><ele>45.0</ele><time>2026-04-11T14:55:25.037Z</time></trkpt><trkpt lat="44.5008584" lon="11.3787432"><ele>45.14285714285714</ele><time>2026-04-11T14:55:29.035Z</time></trkpt><trkpt lat="44.5009095" lon="11.3786866"><ele>45.28571428571429</ele><time>2026-04-11T14:55:32.036Z</time></trkpt><trkpt lat="44.5009843" lon="11.3786426"><ele>45.42857142857143</ele><time>2026-04-11T14:55:36.037Z</time></trkpt><trkpt lat="44.5010418" lon="11.3786033"><ele>45.57142857142857</ele><time>2026-04-11T14:55:39.034Z</time></trkpt><trkpt lat="44.5011163" lon="11.3785958"><ele>45.71428571428571</ele><time>2026-04-11T14:55:43.036Z</time></trkpt><trkpt lat="44.5011837" lon="11.3786017"><ele>45.85714285714286</ele><time>2026-04-11T14:55:47.036Z</time></trkpt><trkpt lat="44.5012576" lon="11.3786153"><ele>46.0</ele><time>2026-04-11T14:55:51.036Z</time></trkpt><trkpt lat="44.5013279" lon="11.378627"><ele>46.0</ele><time>2026-04-11T14:55:55.036Z</time></trkpt><trkpt lat="44.5013984" lon="11.378649"><ele>46.0</ele><time>2026-04-11T14:56:00.037Z</time></trkpt><trkpt lat="44.5014745" lon="11.3786837"><ele>46.0</ele><time>2026-04-11T14:56:04.036Z</time></trkpt><trkpt lat="44.5015351" lon="11.3787124"><ele>46.0</ele><time>2026-04-11T14:56:07.035Z</time></trkpt><trkpt lat="44.5016109" lon="11.3787323"><ele>46.0</ele><time>2026-04-11T14:56:11.035Z</time></trkpt><trkpt lat="44.5016903" lon="11.378736"><ele>46.0</ele><time>2026-04-11T14:56:15.035Z</time></trkpt><trkpt lat="44.5017561" lon="11.3787568"><ele>46.0</ele><time>2026-04-11T14:56:18.037Z</time></trkpt><trkpt lat="44.5018209" lon="11.3787703"><ele>46.0</ele><time>2026-04-11T14:56:21.036Z</time></trkpt><trkpt lat="44.501901" lon="11.3787928"><ele>46.0</ele><time>2026-04-11T14:56:25.035Z</time></trkpt><trkpt lat="44.5019682" lon="11.3788284"><ele>46.0</ele><time>2026-04-11T14:56:29.037Z</time></trkpt><trkpt lat="44.5020331" lon="11.3788645"><ele>46.0</ele><time>2026-04-11T14:56:33.035Z</time></trkpt><trkpt lat="44.5021036" lon="11.3789261"><ele>46.0</ele><time>2026-04-11T14:56:37.036Z</time></trkpt><trkpt lat="44.5021666" lon="11.3789771"><ele>46.0</ele><time>2026-04-11T14:56:40.035Z</time></trkpt><trkpt lat="44.5022355" lon="11.3789475"><ele>45.66666666666667</ele><time>2026-04-11T14:56:43.037Z</time></trkpt><trkpt lat="44.5022787" lon="11.3788625"><ele>45.333333333333336</ele><time>2026-04-11T14:56:46.038Z</time></trkpt><trkpt lat="44.5023105" lon="11.3787562"><ele>45.0</ele><time>2026-04-11T14:56:49.038Z</time></trkpt><trkpt lat="44.5023438" lon="11.3786465"><ele>44.666666666666664</ele><time>2026-04-11T14:56:52.037Z</time></trkpt><trkpt lat="44.5023676" lon="11.3785523"><ele>44.33333333333333</ele><time>2026-04-11T14:56:55.036Z</time></trkpt><trkpt lat="44.5023928" lon="11.3784637"><ele>44.0</ele><time>2026-04-11T14:56:58.035Z</time></trkpt><trkpt lat="44.502407" lon="11.3783687"><ele>44.0</ele><time>2026-04-11T14:57:01.036Z</time></trkpt><trkpt lat="44.5024199" lon="11.3782813"><ele>44.0</ele><time>2026-04-11T14:57:04.038Z</time></trkpt><trkpt lat="44.5024278" lon="11.378189"><ele>44.0</ele><time>2026-04-11T14:57:07.037Z</time></trkpt><trkpt lat="44.5024372" lon="11.3780724"><ele>44.0</ele><time>2026-04-11T14:57:11.036Z</time></trkpt><trkpt lat="44.5024501" lon="11.3779609"><ele>44.0</ele><time>2026-04-11T14:57:15.037Z</time></trkpt><trkpt lat="44.5024677" lon="11.3778466"><ele>44.0</ele><time>2026-04-11T14:57:19.038Z</time></trkpt><trkpt lat="44.5024814" lon="11.3777541"><ele>44.0</ele><time>2026-04-11T14:57:22.038Z</time></trkpt><trkpt lat="44.5024836" lon="11.377643"><ele>43.85714285714286</ele><time>2026-04-11T14:57:26.036Z</time></trkpt><trkpt lat="44.5024888" lon="11.3775344"><ele>43.714285714285715</ele><time>2026-04-11T14:57:30.036Z</time></trkpt><trkpt lat="44.5024971" lon="11.3774454"><ele>43.57142857142857</ele><time>2026-04-11T14:57:33.038Z</time></trkpt><trkpt lat="44.5025025" lon="11.3773394"><ele>43.42857142857143</ele><time>2026-04-11T14:57:37.035Z</time></trkpt><trkpt lat="44.5025228" lon="11.3772415"><ele>43.285714285714285</ele><time>2026-04-11T14:57:41.036Z</time></trkpt><trkpt lat="44.5025211" lon="11.3771484"><ele>43.142857142857146</ele><time>2026-04-11T14:57:44.036Z</time></trkpt><trkpt lat="44.5025038" lon="11.3770464"><ele>43.0</ele><time>2026-04-11T14:57:47.038Z</time></trkpt><trkpt lat="44.5025159" lon="11.3769361"><ele>43.28571428571429</ele><time>2026-04-11T14:57:51.037Z</time></trkpt><trkpt lat="44.5025321" lon="11.3768382"><ele>43.57142857142857</ele><time>2026-04-11T14:57:55.036Z</time></trkpt><trkpt lat="44.5025511" lon="11.376743"><ele>43.85714285714286</ele><time>2026-04-11T14:57:59.038Z</time></trkpt><trkpt lat="44.5025567" lon="11.3766318"><ele>44.142857142857146</ele><time>2026-04-11T14:58:04.038Z</time></trkpt><trkpt lat="44.5025529" lon="11.3765207"><ele>44.42857142857143</ele><time>2026-04-11T14:58:08.038Z</time></trkpt><trkpt lat="44.5025761" lon="11.3764329"><ele>44.714285714285715</ele><time>2026-04-11T14:58:12.035Z</time></trkpt><trkpt lat="44.5025975" lon="11.3763348"><ele>45.0</ele><time>2026-04-11T14:58:16.038Z</time></trkpt><trkpt lat="44.5026361" lon="11.3762416"><ele>45.0</ele><time>2026-04-11T14:58:20.037Z</time></trkpt><trkpt lat="44.5027143" lon="11.3762273"><ele>45.0</ele><time>2026-04-11T14:58:25.039Z</time></trkpt><trkpt lat="44.5027675" lon="11.3762771"><ele>45.0</ele><time>2026-04-11T14:58:28.036Z</time></trkpt><trkpt lat="44.5028264" lon="11.376346"><ele>45.0</ele><time>2026-04-11T14:58:33.037Z</time></trkpt><trkpt lat="44.5028936" lon="11.3763881"><ele>45.0</ele><time>2026-04-11T14:58:37.037Z</time></trkpt><trkpt lat="44.502966" lon="11.3764367"><ele>45.0</ele><time>2026-04-11T14:58:41.038Z</time></trkpt><trkpt lat="44.5030362" lon="11.3764741"><ele>45.0</ele><time>2026-04-11T14:58:46.037Z</time></trkpt><trkpt lat="44.5030955" lon="11.376507"><ele>45.0</ele><time>2026-04-11T14:58:51.038Z</time></trkpt><trkpt lat="44.5031631" lon="11.3765385"><ele>45.0</ele><time>2026-04-11T14:58:56.037Z</time></trkpt><trkpt lat="44.5032296" lon="11.376488"><ele>45.0</ele><time>2026-04-11T14:59:01.038Z</time></trkpt><trkpt lat="44.5032616" lon="11.3764111"><ele>45.0</ele><time>2026-04-11T14:59:06.038Z</time></trkpt><trkpt lat="44.5033276" lon="11.3763561"><ele>45.0</ele><time>2026-04-11T14:59:11.038Z</time></trkpt><trkpt lat="44.5033907" lon="11.3763228"><ele>45.0</ele><time>2026-04-11T14:59:15.037Z</time></trkpt><trkpt lat="44.5034491" lon="11.3762782"><ele>45.0</ele><time>2026-04-11T14:59:19.036Z</time></trkpt><trkpt lat="44.5035093" lon="11.3762457"><ele>45.333333333333336</ele><time>2026-04-11T14:59:23.037Z</time></trkpt><trkpt lat="44.5035868" lon="11.3762244"><ele>45.666666666666664</ele><time>2026-04-11T14:59:27.038Z</time></trkpt><trkpt lat="44.5036558" lon="11.3762597"><ele>46.0</ele><time>2026-04-11T14:59:30.037Z</time></trkpt><trkpt lat="44.5037291" lon="11.3763235"><ele>46.33333333333333</ele><time>2026-04-11T14:59:33.037Z</time></trkpt><trkpt lat="44.503786" lon="11.3763884"><ele>46.666666666666664</ele><time>2026-04-11T14:59:36.038Z</time></trkpt><trkpt lat="44.5038466" lon="11.376428"><ele>47.0</ele><time>2026-04-11T14:59:39.036Z</time></trkpt><trkpt lat="44.5039131" lon="11.3764695"><ele>47.285714285714285</ele><time>2026-04-11T14:59:43.038Z</time></trkpt><trkpt lat="44.5039755" lon="11.3765133"><ele>47.57142857142857</ele><time>2026-04-11T14:59:48.038Z</time></trkpt><trkpt lat="44.504036" lon="11.376558"><ele>47.85714285714286</ele><time>2026-04-11T14:59:52.037Z</time></trkpt><trkpt lat="44.5041003" lon="11.3765352"><ele>48.14285714285714</ele><time>2026-04-11T14:59:58.035Z</time></trkpt><trkpt lat="44.5041485" lon="11.3764758"><ele>48.42857142857143</ele><time>2026-04-11T15:00:02.037Z</time></trkpt><trkpt lat="44.5042203" lon="11.3764253"><ele>48.714285714285715</ele><time>2026-04-11T15:00:05.036Z</time></trkpt><trkpt lat="44.5042905" lon="11.3763784"><ele>49.0</ele><time>2026-04-11T15:00:08.038Z</time></trkpt><trkpt lat="44.50437" lon="11.3763515"><ele>49.0</ele><time>2026-04-11T15:00:12.038Z</time></trkpt><trkpt lat="44.5044399" lon="11.3763447"><ele>49.0</ele><time>2026-04-11T15:00:15.038Z</time></trkpt><trkpt lat="44.5045138" lon="11.3763552"><ele>49.0</ele><time>2026-04-11T15:00:19.037Z</time></trkpt><trkpt lat="44.5045821" lon="11.3763739"><ele>49.0</ele><time>2026-04-11T15:00:23.038Z</time></trkpt><trkpt lat="44.5046449" lon="11.3763253"><ele>49.0</ele><time>2026-04-11T15:00:29.037Z</time></trkpt><trkpt lat="44.5047074" lon="11.3763072"><ele>49.0</ele><time>2026-04-11T15:00:33.037Z</time></trkpt><trkpt lat="44.5047797" lon="11.3762972"><ele>49.0</ele><time>2026-04-11T15:00:37.038Z</time></trkpt><trkpt lat="44.5048433" lon="11.3762716"><ele>48.714285714285715</ele><time>2026-04-11T15:00:40.037Z</time></trkpt><trkpt lat="44.5049275" lon="11.3762816"><ele>48.42857142857143</ele><time>2026-04-11T15:00:43.037Z</time></trkpt><trkpt lat="44.5049923" lon="11.3762619"><ele>48.14285714285714</ele><time>2026-04-11T15:00:46.035Z</time></trkpt><trkpt lat="44.5050596" lon="11.3762461"><ele>47.85714285714286</ele><time>2026-04-11T15:00:50.035Z</time></trkpt><trkpt lat="44.5051247" lon="11.3762083"><ele>47.57142857142857</ele><time>2026-04-11T15:00:55.036Z</time></trkpt><trkpt lat="44.5051825" lon="11.3761519"><ele>47.285714285714285</ele><time>2026-04-11T15:00:59.036Z</time></trkpt><trkpt lat="44.5052509" lon="11.3761002"><ele>47.0</ele><time>2026-04-11T15:01:04.034Z</time></trkpt><trkpt lat="44.5053272" lon="11.3761043"><ele>47.0</ele><time>2026-04-11T15:01:08.036Z</time></trkpt><trkpt lat="44.5054084" lon="11.3761319"><ele>47.0</ele><time>2026-04-11T15:01:11.036Z</time></trkpt><trkpt lat="44.5054871" lon="11.3761485"><ele>47.0</ele><time>2026-04-11T15:01:15.036Z</time></trkpt><trkpt lat="44.5055594" lon="11.3761527"><ele>47.0</ele><time>2026-04-11T15:01:19.038Z</time></trkpt><trkpt lat="44.5056338" lon="11.3761225"><ele>47.0</ele><time>2026-04-11T15:01:24.036Z</time></trkpt><trkpt lat="44.5056864" lon="11.3760664"><ele>47.0</ele><time>2026-04-11T15:01:28.036Z</time></trkpt><trkpt lat="44.5057484" lon="11.3759966"><ele>47.0</ele><time>2026-04-11T15:01:31.037Z</time></trkpt><trkpt lat="44.5058069" lon="11.3759431"><ele>47.0</ele><time>2026-04-11T15:01:34.037Z</time></trkpt><trkpt lat="44.5058797" lon="11.3759365"><ele>47.0</ele><time>2026-04-11T15:01:37.036Z</time></trkpt><trkpt lat="44.5059469" lon="11.3759639"><ele>47.0</ele><time>2026-04-11T15:01:39.034Z</time></trkpt><trkpt lat="44.5060077" lon="11.3760046"><ele>47.0</ele><time>2026-04-11T15:01:41.036Z</time></trkpt><trkpt lat="44.5060912" lon="11.3760288"><ele>47.0</ele><time>2026-04-11T15:01:44.035Z</time></trkpt><trkpt lat="44.5061541" lon="11.3760342"><ele>47.0</ele><time>2026-04-11T15:01:47.036Z</time></trkpt><trkpt lat="44.5062281" lon="11.3760732"><ele>46.714285714285715</ele><time>2026-04-11T15:01:51.037Z</time></trkpt><trkpt lat="44.506296" lon="11.3761219"><ele>46.42857142857143</ele><time>2026-04-11T15:01:55.035Z</time></trkpt><trkpt lat="44.5063579" lon="11.3761491"><ele>46.14285714285714</ele><time>2026-04-11T15:01:58.037Z</time></trkpt><trkpt lat="44.5064251" lon="11.3761443"><ele>45.85714285714286</ele><time>2026-04-11T15:02:01.035Z</time></trkpt><trkpt lat="44.5064909" lon="11.3761062"><ele>45.57142857142858</ele><time>2026-04-11T15:02:03.034Z</time></trkpt><trkpt lat="44.506554" lon="11.3760448"><ele>45.285714285714285</ele><time>2026-04-11T15:02:05.034Z</time></trkpt><trkpt lat="44.5066256" lon="11.3760049"><ele>45.0</ele><time>2026-04-11T15:02:08.036Z</time></trkpt><trkpt lat="44.5066933" lon="11.3759163"><ele>45.0</ele><time>2026-04-11T15:02:11.036Z</time></trkpt><trkpt lat="44.5067423" lon="11.3758364"><ele>45.0</ele><time>2026-04-11T15:02:13.036Z</time></trkpt><trkpt lat="44.5067999" lon="11.3757582"><ele>45.0</ele><time>2026-04-11T15:02:16.036Z</time></trkpt><trkpt lat="44.5068425" lon="11.3756631"><ele>45.0</ele><time>2026-04-11T15:02:19.035Z</time></trkpt><trkpt lat="44.5068906" lon="11.3755978"><ele>45.0</ele><time>2026-04-11T15:02:23.037Z</time></trkpt><trkpt lat="44.5069558" lon="11.3756181"><ele>45.0</ele><time>2026-04-11T15:02:27.035Z</time></trkpt><trkpt lat="44.5069998" lon="11.375693"><ele>45.0</ele><time>2026-04-11T15:02:30.038Z</time></trkpt><trkpt lat="44.5070624" lon="11.3757875"><ele>45.14285714285714</ele><time>2026-04-11T15:02:33.036Z</time></trkpt><trkpt lat="44.5071042" lon="11.3758981"><ele>45.28571428571429</ele><time>2026-04-11T15:02:36.038Z</time></trkpt><trkpt lat="44.5071647" lon="11.3759353"><ele>45.42857142857143</ele><time>2026-04-11T15:02:39.034Z</time></trkpt><trkpt lat="44.5072216" lon="11.3758864"><ele>45.57142857142857</ele><time>2026-04-11T15:02:41.036Z</time></trkpt><trkpt lat="44.5072778" lon="11.375838"><ele>45.71428571428571</ele><time>2026-04-11T15:02:43.036Z</time></trkpt><trkpt lat="44.5073322" lon="11.3757902"><ele>45.85714285714286</ele><time>2026-04-11T15:02:45.036Z</time></trkpt><trkpt lat="44.5073854" lon="11.3757317"><ele>46.0</ele><time>2026-04-11T15:02:47.036Z</time></trkpt><trkpt lat="44.5074342" lon="11.375668"><ele>46.0</ele><time>2026-04-11T15:02:49.035Z</time></trkpt><trkpt lat="44.5074972" lon="11.3755905"><ele>46.0</ele><time>2026-04-11T15:02:52.035Z</time></trkpt><trkpt lat="44.507568" lon="11.3755087"><ele>46.0</ele><time>2026-04-11T15:02:55.036Z</time></trkpt><trkpt lat="44.507641" lon="11.3754275"><ele>46.0</ele><time>2026-04-11T15:02:58.036Z</time></trkpt><trkpt lat="44.5076957" lon="11.3753722"><ele>46.0</ele><time>2026-04-11T15:03:00.034Z</time></trkpt><trkpt lat="44.5077476" lon="11.3753037"><ele>46.0</ele><time>2026-04-11T15:03:02.036Z</time></trkpt><trkpt lat="44.5077962" lon="11.3752471"><ele>45.5</ele><time>2026-04-11T15:03:04.035Z</time></trkpt><trkpt lat="44.5078648" lon="11.3751704"><ele>45.0</ele><time>2026-04-11T15:03:07.037Z</time></trkpt><trkpt lat="44.507927" lon="11.3750913"><ele>44.5</ele><time>2026-04-11T15:03:10.037Z</time></trkpt><trkpt lat="44.5079898" lon="11.3750241"><ele>44.0</ele><time>2026-04-11T15:03:13.037Z</time></trkpt><trkpt lat="44.5080516" lon="11.3749534"><ele>43.5</ele><time>2026-04-11T15:03:16.037Z</time></trkpt><trkpt lat="44.5081129" lon="11.3748814"><ele>43.0</ele><time>2026-04-11T15:03:19.036Z</time></trkpt><trkpt lat="44.5081723" lon="11.3748242"><ele>43.00000000000001</ele><time>2026-04-11T15:03:22.037Z</time></trkpt><trkpt lat="44.5082472" lon="11.3748134"><ele>43.0</ele><time>2026-04-11T15:03:25.038Z</time></trkpt><trkpt lat="44.508313" lon="11.3747977"><ele>43.0</ele><time>2026-04-11T15:03:28.036Z</time></trkpt><trkpt lat="44.5083789" lon="11.3747483"><ele>43.0</ele><time>2026-04-11T15:03:33.036Z</time></trkpt><trkpt lat="44.5084364" lon="11.3747086"><ele>43.0</ele><time>2026-04-11T15:03:37.037Z</time></trkpt><trkpt lat="44.5085078" lon="11.3746788"><ele>43.00000000000001</ele><time>2026-04-11T15:03:43.035Z</time></trkpt><trkpt lat="44.5085719" lon="11.3746232"><ele>43.0</ele><time>2026-04-11T15:03:49.038Z</time></trkpt><trkpt lat="44.5085995" lon="11.3745421"><ele>43.00000000000001</ele><time>2026-04-11T15:03:56.036Z</time></trkpt><trkpt lat="44.508581" lon="11.3744545"><ele>43.0</ele><time>2026-04-11T15:06:15.036Z</time></trkpt><trkpt lat="44.5085527" lon="11.3745363"><ele>43.0</ele><time>2026-04-11T15:07:02.039Z</time></trkpt><trkpt lat="44.5085567" lon="11.374633"><ele>43.0</ele><time>2026-04-11T15:07:10.035Z</time></trkpt><trkpt lat="44.50854" lon="11.3747189"><ele>43.0</ele><time>2026-04-11T15:07:16.032Z</time></trkpt><trkpt lat="44.5085273" lon="11.3748064"><ele>43.00000000000001</ele><time>2026-04-11T15:07:24.035Z</time></trkpt><trkpt lat="44.5085128" lon="11.3748976"><ele>43.0</ele><time>2026-04-11T15:07:34.031Z</time></trkpt><trkpt lat="44.5085086" lon="11.3749868"><ele>43.00000000000001</ele><time>2026-04-11T15:07:42.033Z</time></trkpt><trkpt lat="44.5085422" lon="11.3750685"><ele>43.0</ele><time>2026-04-11T15:07:50.033Z</time></trkpt><trkpt lat="44.5085701" lon="11.3751531"><ele>43.0</ele><time>2026-04-11T15:07:58.032Z</time></trkpt><trkpt lat="44.5085677" lon="11.3752441"><ele>43.0</ele><time>2026-04-11T15:08:07.033Z</time></trkpt><trkpt lat="44.5085944" lon="11.3753261"><ele>43.0</ele><time>2026-04-11T15:08:15.034Z</time></trkpt><trkpt lat="44.508622" lon="11.3754181"><ele>43.00000000000001</ele><time>2026-04-11T15:08:23.033Z</time></trkpt><trkpt lat="44.5086587" lon="11.3754976"><ele>43.0</ele><time>2026-04-11T15:08:30.031Z</time></trkpt><trkpt lat="44.5086914" lon="11.3755855"><ele>43.42857142857143</ele><time>2026-04-11T15:08:37.034Z</time></trkpt><trkpt lat="44.5087053" lon="11.3756737"><ele>43.85714285714286</ele><time>2026-04-11T15:08:45.031Z</time></trkpt><trkpt lat="44.5086893" lon="11.3757621"><ele>44.28571428571429</ele><time>2026-04-11T15:08:55.031Z</time></trkpt><trkpt lat="44.5086376" lon="11.3758261"><ele>44.714285714285715</ele><time>2026-04-11T15:09:03.033Z</time></trkpt><trkpt lat="44.5086214" lon="11.3759171"><ele>45.14285714285714</ele><time>2026-04-11T15:09:09.035Z</time></trkpt><trkpt lat="44.5086369" lon="11.3760129"><ele>45.57142857142858</ele><time>2026-04-11T15:09:19.033Z</time></trkpt><trkpt lat="44.5086548" lon="11.3761032"><ele>46.0</ele><time>2026-04-11T15:09:24.037Z</time></trkpt><trkpt lat="44.5086708" lon="11.3762002"><ele>46.0</ele><time>2026-04-11T15:09:29.034Z</time></trkpt><trkpt lat="44.5086335" lon="11.3762797"><ele>46.0</ele><time>2026-04-11T15:09:39.031Z</time></trkpt></trkseg></trk></gpx>